PWSweather.com
Personal Weather Stations
Station Observations
KOHREFORM1
Reform, Ohio, Newark, OH 43055

Reform, OhioNewark, OH 43055

Lat: 40.1502, Lon: -82.2417

Elevation: 1043

Station Type: Davis Vantage Pro 2 Plus

randysweatheronthehill.com

High Low Average
Temperature 85.1°F29.5°C 47.9°F8.8°C 65.8°F18.8°C
Dew Point 61.3°F16.3°C 45.3°F7.4°C 53.0°F11.7°C
Winds 9.0 mph 14.5 kmh Calm Calm 1.0 mph SE1.6 kmh SE
Wind Gusts 13.7 mph22.0 kmh -- 3.0 mph4.8 kmh
Humidity 95% 33% 68%
Pressure 30.08 in1018.6 mb 29.90 in1012.5 mb -
Precipitation 0.00 in0.0 mm - -
Hour Temp Dew Point Humidity Winds Wind Gusts Pressure Precip Precip Rate Daily Precip Total
12:00 AM 51.1°F10.6°C 45.5°F7.5°C 81% Calm Calm -- 30.03 in1016.9 mb 0.00 in0.0 mm 0.00 in0.0 mm 0.00 in0.0 mm
12:02 AM 51.1°F10.6°C 45.8°F7.7°C 82% Calm Calm -- 30.03 in1016.9 mb 0.00 in0.0 mm 0.00 in0.0 mm 0.00 in0.0 mm
12:04 AM 51.1°F10.6°C 46.1°F7.8°C 83% Calm Calm -- 30.03 in1016.9 mb 0.00 in0.0 mm 0.00 in0.0 mm 0.00 in0.0 mm
12:06 AM 51.1°F10.6°C 46.1°F7.8°C 83% Calm Calm -- 30.03 in1016.9 mb 0.00 in0.0 mm 0.00 in0.0 mm 0.00 in0.0 mm
12:08 AM 51.1°F10.6°C 46.1°F7.8°C 83% Calm Calm -- 30.03 in1016.9 mb 0.00 in0.0 mm 0.00 in0.0 mm 0.00 in0.0 mm
12:10 AM 51.0°F10.6°C 45.7°F7.6°C 82% Calm Calm -- 30.03 in1016.9 mb 0.00 in0.0 mm 0.00 in0.0 mm 0.00 in0.0 mm
12:12 AM 51.0°F10.6°C 45.7°F7.6°C 82% Calm Calm -- 30.03 in1016.9 mb 0.00 in0.0 mm 0.00 in0.0 mm 0.00 in0.0 mm
12:14 AM 51.0°F10.6°C 45.7°F7.6°C 82% Calm Calm -- 30.03 in1016.9 mb 0.00 in0.0 mm 0.00 in0.0 mm 0.00 in0.0 mm
12:16 AM 50.9°F10.5°C 45.9°F7.7°C 83% Calm Calm -- 30.03 in1016.9 mb 0.00 in0.0 mm 0.00 in0.0 mm 0.00 in0.0 mm
12:18 AM 50.9°F10.5°C 45.9°F7.7°C 83% Calm Calm -- 30.03 in1016.9 mb 0.00 in0.0 mm 0.00 in0.0 mm 0.00 in0.0 mm
12:20 AM 50.8°F10.4°C 46.1°F7.8°C 84% Calm Calm -- 30.03 in1016.9 mb 0.00 in0.0 mm 0.00 in0.0 mm 0.00 in0.0 mm
12:22 AM 50.8°F10.4°C 46.5°F8.1°C 85% Calm Calm -- 30.03 in1016.9 mb 0.00 in0.0 mm 0.00 in0.0 mm 0.00 in0.0 mm
12:24 AM 50.8°F10.4°C 46.5°F8.1°C 85% Calm Calm -- 30.03 in1016.9 mb 0.00 in0.0 mm 0.00 in0.0 mm 0.00 in0.0 mm
12:26 AM 50.8°F10.4°C 46.5°F8.1°C 85% Calm Calm -- 30.03 in1016.9 mb 0.00 in0.0 mm 0.00 in0.0 mm 0.00 in0.0 mm
12:28 AM 50.7°F10.4°C 45.7°F7.6°C 83% Calm Calm -- 30.03 in1016.9 mb 0.00 in0.0 mm 0.00 in0.0 mm 0.00 in0.0 mm
12:30 AM 50.6°F10.3°C 45.3°F7.4°C 82% Calm Calm -- 30.03 in1016.9 mb 0.00 in0.0 mm 0.00 in0.0 mm 0.00 in0.0 mm
12:32 AM 50.6°F10.3°C 45.6°F7.6°C 83% Calm Calm -- 30.03 in1016.9 mb 0.00 in0.0 mm 0.00 in0.0 mm 0.00 in0.0 mm
12:34 AM 50.7°F10.4°C 45.7°F7.6°C 83% Calm Calm -- 30.03 in1016.9 mb 0.00 in0.0 mm 0.00 in0.0 mm 0.00 in0.0 mm
12:36 AM 50.9°F10.5°C 46.2°F7.9°C 84% Calm Calm -- 30.03 in1016.9 mb 0.00 in0.0 mm 0.00 in0.0 mm 0.00 in0.0 mm
12:38 AM 51.1°F10.6°C 47.1°F8.4°C 86% Calm Calm -- 30.03 in1016.9 mb 0.00 in0.0 mm 0.00 in0.0 mm 0.00 in0.0 mm
12:40 AM 51.1°F10.6°C 46.7°F8.2°C 85% Calm Calm -- 30.03 in1016.9 mb 0.00 in0.0 mm 0.00 in0.0 mm 0.00 in0.0 mm
12:42 AM 51.2°F10.7°C 46.8°F8.2°C 85% Calm Calm -- 30.03 in1016.9 mb 0.00 in0.0 mm 0.00 in0.0 mm 0.00 in0.0 mm
12:44 AM 51.2°F10.7°C 47.2°F8.4°C 86% Calm Calm -- 30.03 in1016.9 mb 0.00 in0.0 mm 0.00 in0.0 mm 0.00 in0.0 mm
12:46 AM 51.2°F10.7°C 47.2°F8.4°C 86% Calm Calm -- 30.03 in1016.9 mb 0.00 in0.0 mm 0.00 in0.0 mm 0.00 in0.0 mm
12:48 AM 51.1°F10.6°C 47.1°F8.4°C 86% Calm Calm -- 30.03 in1016.9 mb 0.00 in0.0 mm 0.00 in0.0 mm 0.00 in0.0 mm
12:50 AM 51.1°F10.6°C 46.7°F8.2°C 85% Calm Calm -- 30.03 in1016.9 mb 0.00 in0.0 mm 0.00 in0.0 mm 0.00 in0.0 mm
12:52 AM 51.0°F10.6°C 46.7°F8.2°C 85% Calm Calm -- 30.03 in1016.9 mb 0.00 in0.0 mm 0.00 in0.0 mm 0.00 in0.0 mm
12:54 AM 50.9°F10.5°C 46.6°F8.1°C 85% Calm Calm -- 30.03 in1016.9 mb 0.00 in0.0 mm 0.00 in0.0 mm 0.00 in0.0 mm
12:56 AM 50.8°F10.4°C 46.5°F8.1°C 85% Calm Calm -- 30.03 in1016.9 mb 0.00 in0.0 mm 0.00 in0.0 mm 0.00 in0.0 mm
12:58 AM 50.7°F10.4°C 46.7°F8.2°C 86% Calm Calm -- 30.03 in1016.9 mb 0.00 in0.0 mm 0.00 in0.0 mm 0.00 in0.0 mm
01:00 AM 50.6°F10.3°C 46.6°F8.1°C 86% Calm Calm -- 30.03 in1016.9 mb 0.00 in0.0 mm 0.00 in0.0 mm 0.00 in0.0 mm
01:02 AM 50.5°F10.3°C 46.8°F8.2°C 87% Calm Calm -- 30.03 in1016.9 mb 0.00 in0.0 mm 0.00 in0.0 mm 0.00 in0.0 mm
01:04 AM 50.4°F10.2°C 46.7°F8.2°C 87% Calm Calm -- 30.03 in1016.9 mb 0.00 in0.0 mm 0.00 in0.0 mm 0.00 in0.0 mm
01:06 AM 50.4°F10.2°C 46.7°F8.2°C 87% Calm Calm -- 30.03 in1016.9 mb 0.00 in0.0 mm 0.00 in0.0 mm 0.00 in0.0 mm
01:08 AM 50.3°F10.2°C 46.6°F8.1°C 87% Calm Calm -- 30.03 in1016.9 mb 0.00 in0.0 mm 0.00 in0.0 mm 0.00 in0.0 mm
01:10 AM 50.1°F10.1°C 46.4°F8.0°C 87% Calm Calm -- 30.03 in1016.9 mb 0.00 in0.0 mm 0.00 in0.0 mm 0.00 in0.0 mm
01:12 AM 49.9°F9.9°C 46.2°F7.9°C 87% Calm Calm -- 30.03 in1016.9 mb 0.00 in0.0 mm 0.00 in0.0 mm 0.00 in0.0 mm
01:14 AM 49.9°F9.9°C 46.2°F7.9°C 87% Calm Calm -- 30.03 in1016.9 mb 0.00 in0.0 mm 0.00 in0.0 mm 0.00 in0.0 mm
01:16 AM 49.7°F9.8°C 46.0°F7.8°C 87% Calm Calm -- 30.03 in1016.9 mb 0.00 in0.0 mm 0.00 in0.0 mm 0.00 in0.0 mm
01:18 AM 49.6°F9.8°C 45.9°F7.7°C 87% Calm Calm -- 30.03 in1016.9 mb 0.00 in0.0 mm 0.00 in0.0 mm 0.00 in0.0 mm
01:20 AM 49.4°F9.7°C 45.7°F7.6°C 87% Calm Calm -- 30.03 in1016.9 mb 0.00 in0.0 mm 0.00 in0.0 mm 0.00 in0.0 mm
01:22 AM 49.3°F9.6°C 45.6°F7.6°C 87% Calm Calm -- 30.03 in1016.9 mb 0.00 in0.0 mm 0.00 in0.0 mm 0.00 in0.0 mm
01:24 AM 49.2°F9.6°C 45.8°F7.7°C 88% Calm Calm -- 30.03 in1016.9 mb 0.00 in0.0 mm 0.00 in0.0 mm 0.00 in0.0 mm
01:26 AM 49.1°F9.5°C 45.7°F7.6°C 88% Calm Calm -- 30.03 in1016.9 mb 0.00 in0.0 mm 0.00 in0.0 mm 0.00 in0.0 mm
01:28 AM 49.0°F9.4°C 45.6°F7.6°C 88% Calm Calm -- 30.03 in1016.9 mb 0.00 in0.0 mm 0.00 in0.0 mm 0.00 in0.0 mm
01:30 AM 49.0°F9.4°C 45.9°F7.7°C 89% Calm Calm -- 30.03 in1016.9 mb 0.00 in0.0 mm 0.00 in0.0 mm 0.00 in0.0 mm
01:32 AM 49.0°F9.4°C 46.2°F7.9°C 90% Calm Calm -- 30.03 in1016.9 mb 0.00 in0.0 mm 0.00 in0.0 mm 0.00 in0.0 mm
01:34 AM 49.0°F9.4°C 46.2°F7.9°C 90% Calm Calm -- 30.03 in1016.9 mb 0.00 in0.0 mm 0.00 in0.0 mm 0.00 in0.0 mm
01:36 AM 49.0°F9.4°C 46.2°F7.9°C 90% Calm Calm -- 30.03 in1016.9 mb 0.00 in0.0 mm 0.00 in0.0 mm 0.00 in0.0 mm
01:38 AM 49.0°F9.4°C 45.9°F7.7°C 89% Calm Calm -- 30.03 in1016.9 mb 0.00 in0.0 mm 0.00 in0.0 mm 0.00 in0.0 mm
01:40 AM 49.0°F9.4°C 45.9°F7.7°C 89% Calm Calm -- 30.03 in1016.9 mb 0.00 in0.0 mm 0.00 in0.0 mm 0.00 in0.0 mm
01:42 AM 49.0°F9.4°C 45.9°F7.7°C 89% Calm Calm -- 30.03 in1016.9 mb 0.00 in0.0 mm 0.00 in0.0 mm 0.00 in0.0 mm
01:44 AM 49.1°F9.5°C 46.0°F7.8°C 89% Calm Calm -- 30.03 in1016.9 mb 0.00 in0.0 mm 0.00 in0.0 mm 0.00 in0.0 mm
01:46 AM 49.1°F9.5°C 46.0°F7.8°C 89% Calm Calm -- 30.03 in1016.9 mb 0.00 in0.0 mm 0.00 in0.0 mm 0.00 in0.0 mm
01:48 AM 49.1°F9.5°C 46.0°F7.8°C 89% Calm Calm -- 30.03 in1016.9 mb 0.00 in0.0 mm 0.00 in0.0 mm 0.00 in0.0 mm
01:50 AM 49.2°F9.6°C 46.1°F7.8°C 89% Calm Calm -- 30.03 in1016.9 mb 0.00 in0.0 mm 0.00 in0.0 mm 0.00 in0.0 mm
01:52 AM 49.2°F9.6°C 46.1°F7.8°C 89% Calm Calm -- 30.03 in1016.9 mb 0.00 in0.0 mm 0.00 in0.0 mm 0.00 in0.0 mm
01:54 AM 49.3°F9.6°C 46.2°F7.9°C 89% Calm Calm -- 30.03 in1016.9 mb 0.00 in0.0 mm 0.00 in0.0 mm 0.00 in0.0 mm
01:56 AM 49.3°F9.6°C 46.2°F7.9°C 89% Calm Calm -- 30.03 in1016.9 mb 0.00 in0.0 mm 0.00 in0.0 mm 0.00 in0.0 mm
01:58 AM 49.3°F9.6°C 46.2°F7.9°C 89% Calm Calm -- 30.02 in1016.6 mb 0.00 in0.0 mm 0.00 in0.0 mm 0.00 in0.0 mm
02:00 AM 49.4°F9.7°C 46.3°F7.9°C 89% Calm Calm -- 30.02 in1016.6 mb 0.00 in0.0 mm 0.00 in0.0 mm 0.00 in0.0 mm
02:02 AM 49.4°F9.7°C 46.3°F7.9°C 89% Calm Calm -- 30.03 in1016.9 mb 0.00 in0.0 mm 0.00 in0.0 mm 0.00 in0.0 mm
02:04 AM 49.3°F9.6°C 46.2°F7.9°C 89% Calm Calm -- 30.03 in1016.9 mb 0.00 in0.0 mm 0.00 in0.0 mm 0.00 in0.0 mm
02:06 AM 49.3°F9.6°C 46.2°F7.9°C 89% Calm Calm -- 30.03 in1016.9 mb 0.00 in0.0 mm 0.00 in0.0 mm 0.00 in0.0 mm
02:08 AM 49.3°F9.6°C 46.2°F7.9°C 89% Calm Calm -- 30.03 in1016.9 mb 0.00 in0.0 mm 0.00 in0.0 mm 0.00 in0.0 mm
02:10 AM 49.3°F9.6°C 46.2°F7.9°C 89% Calm Calm -- 30.02 in1016.6 mb 0.00 in0.0 mm 0.00 in0.0 mm 0.00 in0.0 mm
02:12 AM 49.2°F9.6°C 46.1°F7.8°C 89% Calm Calm -- 30.03 in1016.9 mb 0.00 in0.0 mm 0.00 in0.0 mm 0.00 in0.0 mm
02:14 AM 49.0°F9.4°C 45.9°F7.7°C 89% Calm Calm -- 30.03 in1016.9 mb 0.00 in0.0 mm 0.00 in0.0 mm 0.00 in0.0 mm
02:16 AM 48.9°F9.4°C 45.8°F7.7°C 89% Calm Calm -- 30.03 in1016.9 mb 0.00 in0.0 mm 0.00 in0.0 mm 0.00 in0.0 mm
02:18 AM 48.8°F9.3°C 45.7°F7.6°C 89% Calm Calm -- 30.02 in1016.6 mb 0.00 in0.0 mm 0.00 in0.0 mm 0.00 in0.0 mm
02:20 AM 48.8°F9.3°C 45.7°F7.6°C 89% Calm Calm -- 30.02 in1016.6 mb 0.00 in0.0 mm 0.00 in0.0 mm 0.00 in0.0 mm
02:22 AM 48.7°F9.3°C 45.6°F7.6°C 89% Calm Calm -- 30.02 in1016.6 mb 0.00 in0.0 mm 0.00 in0.0 mm 0.00 in0.0 mm
02:24 AM 48.6°F9.2°C 45.8°F7.7°C 90% Calm Calm -- 30.02 in1016.6 mb 0.00 in0.0 mm 0.00 in0.0 mm 0.00 in0.0 mm
02:26 AM 48.5°F9.2°C 45.7°F7.6°C 90% Calm Calm -- 30.02 in1016.6 mb 0.00 in0.0 mm 0.00 in0.0 mm 0.00 in0.0 mm
02:28 AM 48.5°F9.2°C 45.7°F7.6°C 90% Calm Calm -- 30.02 in1016.6 mb 0.00 in0.0 mm 0.00 in0.0 mm 0.00 in0.0 mm
02:30 AM 48.4°F9.1°C 45.6°F7.6°C 90% Calm Calm -- 30.02 in1016.6 mb 0.00 in0.0 mm 0.00 in0.0 mm 0.00 in0.0 mm
02:32 AM 48.4°F9.1°C 45.9°F7.7°C 91% Calm Calm -- 30.02 in1016.6 mb 0.00 in0.0 mm 0.00 in0.0 mm 0.00 in0.0 mm
02:34 AM 48.3°F9.1°C 45.8°F7.7°C 91% Calm Calm -- 30.02 in1016.6 mb 0.00 in0.0 mm 0.00 in0.0 mm 0.00 in0.0 mm
02:36 AM 48.3°F9.1°C 45.8°F7.7°C 91% Calm Calm -- 30.02 in1016.6 mb 0.00 in0.0 mm 0.00 in0.0 mm 0.00 in0.0 mm
02:38 AM 48.3°F9.1°C 45.8°F7.7°C 91% Calm Calm -- 30.02 in1016.6 mb 0.00 in0.0 mm 0.00 in0.0 mm 0.00 in0.0 mm
02:40 AM 48.3°F9.1°C 45.8°F7.7°C 91% Calm Calm -- 30.02 in1016.6 mb 0.00 in0.0 mm 0.00 in0.0 mm 0.00 in0.0 mm
02:42 AM 48.3°F9.1°C 45.8°F7.7°C 91% Calm Calm -- 30.02 in1016.6 mb 0.00 in0.0 mm 0.00 in0.0 mm 0.00 in0.0 mm
02:44 AM 48.2°F9.0°C 45.7°F7.6°C 91% Calm Calm -- 30.02 in1016.6 mb 0.00 in0.0 mm 0.00 in0.0 mm 0.00 in0.0 mm
02:46 AM 48.1°F8.9°C 45.6°F7.6°C 91% Calm Calm -- 30.02 in1016.6 mb 0.00 in0.0 mm 0.00 in0.0 mm 0.00 in0.0 mm
02:48 AM 48.1°F8.9°C 45.6°F7.6°C 91% Calm Calm -- 30.02 in1016.6 mb 0.00 in0.0 mm 0.00 in0.0 mm 0.00 in0.0 mm
02:50 AM 48.1°F8.9°C 45.6°F7.6°C 91% Calm Calm -- 30.02 in1016.6 mb 0.00 in0.0 mm 0.00 in0.0 mm 0.00 in0.0 mm
02:52 AM 48.1°F8.9°C 45.6°F7.6°C 91% Calm Calm -- 30.02 in1016.6 mb 0.00 in0.0 mm 0.00 in0.0 mm 0.00 in0.0 mm
02:54 AM 48.0°F8.9°C 45.5°F7.5°C 91% Calm Calm -- 30.02 in1016.6 mb 0.00 in0.0 mm 0.00 in0.0 mm 0.00 in0.0 mm
02:56 AM 47.9°F8.8°C 45.4°F7.4°C 91% Calm Calm -- 30.02 in1016.6 mb 0.00 in0.0 mm 0.00 in0.0 mm 0.00 in0.0 mm
02:58 AM 47.9°F8.8°C 45.7°F7.6°C 92% Calm Calm -- 30.02 in1016.6 mb 0.00 in0.0 mm 0.00 in0.0 mm 0.00 in0.0 mm
03:00 AM 47.9°F8.8°C 45.7°F7.6°C 92% Calm Calm -- 30.02 in1016.6 mb 0.00 in0.0 mm 0.00 in0.0 mm 0.00 in0.0 mm
03:02 AM 47.9°F8.8°C 45.7°F7.6°C 92% Calm Calm -- 30.02 in1016.6 mb 0.00 in0.0 mm 0.00 in0.0 mm 0.00 in0.0 mm
03:04 AM 47.9°F8.8°C 45.7°F7.6°C 92% Calm Calm -- 30.03 in1016.9 mb 0.00 in0.0 mm 0.00 in0.0 mm 0.00 in0.0 mm
03:06 AM 47.9°F8.8°C 45.7°F7.6°C 92% Calm Calm -- 30.03 in1016.9 mb 0.00 in0.0 mm 0.00 in0.0 mm 0.00 in0.0 mm
03:08 AM 48.0°F8.9°C 45.8°F7.7°C 92% Calm Calm -- 30.02 in1016.6 mb 0.00 in0.0 mm 0.00 in0.0 mm 0.00 in0.0 mm
03:10 AM 48.0°F8.9°C 45.8°F7.7°C 92% Calm Calm -- 30.02 in1016.6 mb 0.00 in0.0 mm 0.00 in0.0 mm 0.00 in0.0 mm
03:12 AM 48.0°F8.9°C 46.1°F7.8°C 93% Calm Calm -- 30.03 in1016.9 mb 0.00 in0.0 mm 0.00 in0.0 mm 0.00 in0.0 mm
03:14 AM 48.0°F8.9°C 46.1°F7.8°C 93% Calm Calm -- 30.03 in1016.9 mb 0.00 in0.0 mm 0.00 in0.0 mm 0.00 in0.0 mm
03:16 AM 48.1°F8.9°C 46.2°F7.9°C 93% Calm Calm -- 30.03 in1016.9 mb 0.00 in0.0 mm 0.00 in0.0 mm 0.00 in0.0 mm
03:18 AM 48.1°F8.9°C 46.2°F7.9°C 93% Calm Calm -- 30.03 in1016.9 mb 0.00 in0.0 mm 0.00 in0.0 mm 0.00 in0.0 mm
03:20 AM 48.2°F9.0°C 46.3°F7.9°C 93% Calm Calm -- 30.03 in1016.9 mb 0.00 in0.0 mm 0.00 in0.0 mm 0.00 in0.0 mm
03:22 AM 48.2°F9.0°C 46.3°F7.9°C 93% Calm Calm -- 30.03 in1016.9 mb 0.00 in0.0 mm 0.00 in0.0 mm 0.00 in0.0 mm
03:24 AM 48.2°F9.0°C 46.3°F7.9°C 93% Calm Calm -- 30.03 in1016.9 mb 0.00 in0.0 mm 0.00 in0.0 mm 0.00 in0.0 mm
03:26 AM 48.3°F9.1°C 46.4°F8.0°C 93% Calm Calm -- 30.03 in1016.9 mb 0.00 in0.0 mm 0.00 in0.0 mm 0.00 in0.0 mm
03:28 AM 48.3°F9.1°C 46.4°F8.0°C 93% Calm Calm -- 30.03 in1016.9 mb 0.00 in0.0 mm 0.00 in0.0 mm 0.00 in0.0 mm
03:30 AM 48.4°F9.1°C 46.5°F8.1°C 93% Calm Calm -- 30.03 in1016.9 mb 0.00 in0.0 mm 0.00 in0.0 mm 0.00 in0.0 mm
03:32 AM 48.4°F9.1°C 46.5°F8.1°C 93% Calm Calm -- 30.03 in1016.9 mb 0.00 in0.0 mm 0.00 in0.0 mm 0.00 in0.0 mm
03:34 AM 48.5°F9.2°C 46.6°F8.1°C 93% Calm Calm -- 30.04 in1017.3 mb 0.00 in0.0 mm 0.00 in0.0 mm 0.00 in0.0 mm
03:36 AM 48.5°F9.2°C 46.6°F8.1°C 93% Calm Calm -- 30.04 in1017.3 mb 0.00 in0.0 mm 0.00 in0.0 mm 0.00 in0.0 mm
03:38 AM 48.6°F9.2°C 46.7°F8.2°C 93% Calm Calm -- 30.04 in1017.3 mb 0.00 in0.0 mm 0.00 in0.0 mm 0.00 in0.0 mm
03:40 AM 48.7°F9.3°C 46.8°F8.2°C 93% Calm Calm -- 30.04 in1017.3 mb 0.00 in0.0 mm 0.00 in0.0 mm 0.00 in0.0 mm
03:42 AM 48.7°F9.3°C 46.8°F8.2°C 93% Calm Calm -- 30.04 in1017.3 mb 0.00 in0.0 mm 0.00 in0.0 mm 0.00 in0.0 mm
03:44 AM 48.7°F9.3°C 46.5°F8.1°C 92% Calm Calm -- 30.04 in1017.3 mb 0.00 in0.0 mm 0.00 in0.0 mm 0.00 in0.0 mm
03:46 AM 48.7°F9.3°C 46.5°F8.1°C 92% Calm Calm -- 30.04 in1017.3 mb 0.00 in0.0 mm 0.00 in0.0 mm 0.00 in0.0 mm
03:48 AM 48.8°F9.3°C 46.6°F8.1°C 92% Calm Calm -- 30.04 in1017.3 mb 0.00 in0.0 mm 0.00 in0.0 mm 0.00 in0.0 mm
03:50 AM 48.8°F9.3°C 46.6°F8.1°C 92% Calm Calm -- 30.04 in1017.3 mb 0.00 in0.0 mm 0.00 in0.0 mm 0.00 in0.0 mm
03:52 AM 48.8°F9.3°C 46.6°F8.1°C 92% Calm Calm -- 30.04 in1017.3 mb 0.00 in0.0 mm 0.00 in0.0 mm 0.00 in0.0 mm
03:54 AM 48.8°F9.3°C 46.6°F8.1°C 92% Calm Calm -- 30.04 in1017.3 mb 0.00 in0.0 mm 0.00 in0.0 mm 0.00 in0.0 mm
03:56 AM 48.8°F9.3°C 46.6°F8.1°C 92% Calm Calm -- 30.04 in1017.3 mb 0.00 in0.0 mm 0.00 in0.0 mm 0.00 in0.0 mm
03:58 AM 48.8°F9.3°C 46.6°F8.1°C 92% Calm Calm -- 30.04 in1017.3 mb 0.00 in0.0 mm 0.00 in0.0 mm 0.00 in0.0 mm
04:00 AM 48.7°F9.3°C 46.5°F8.1°C 92% Calm Calm -- 30.04 in1017.3 mb 0.00 in0.0 mm 0.00 in0.0 mm 0.00 in0.0 mm
04:02 AM 48.7°F9.3°C 46.5°F8.1°C 92% Calm Calm -- 30.04 in1017.3 mb 0.00 in0.0 mm 0.00 in0.0 mm 0.00 in0.0 mm
04:04 AM 48.8°F9.3°C 46.6°F8.1°C 92% Calm Calm -- 30.04 in1017.3 mb 0.00 in0.0 mm 0.00 in0.0 mm 0.00 in0.0 mm
04:06 AM 48.8°F9.3°C 46.6°F8.1°C 92% Calm Calm -- 30.04 in1017.3 mb 0.00 in0.0 mm 0.00 in0.0 mm 0.00 in0.0 mm
04:08 AM 48.7°F9.3°C 46.5°F8.1°C 92% Calm Calm -- 30.05 in1017.6 mb 0.00 in0.0 mm 0.00 in0.0 mm 0.00 in0.0 mm
04:10 AM 48.7°F9.3°C 46.5°F8.1°C 92% Calm Calm -- 30.05 in1017.6 mb 0.00 in0.0 mm 0.00 in0.0 mm 0.00 in0.0 mm
04:12 AM 48.7°F9.3°C 46.5°F8.1°C 92% Calm Calm -- 30.05 in1017.6 mb 0.00 in0.0 mm 0.00 in0.0 mm 0.00 in0.0 mm
04:14 AM 48.7°F9.3°C 46.5°F8.1°C 92% Calm Calm -- 30.05 in1017.6 mb 0.00 in0.0 mm 0.00 in0.0 mm 0.00 in0.0 mm
04:16 AM 48.7°F9.3°C 46.5°F8.1°C 92% Calm Calm -- 30.05 in1017.6 mb 0.00 in0.0 mm 0.00 in0.0 mm 0.00 in0.0 mm
04:18 AM 48.7°F9.3°C 46.5°F8.1°C 92% Calm Calm -- 30.05 in1017.6 mb 0.00 in0.0 mm 0.00 in0.0 mm 0.00 in0.0 mm
04:20 AM 48.7°F9.3°C 46.5°F8.1°C 92% Calm Calm -- 30.05 in1017.6 mb 0.00 in0.0 mm 0.00 in0.0 mm 0.00 in0.0 mm
04:22 AM 48.7°F9.3°C 46.5°F8.1°C 92% Calm Calm -- 30.05 in1017.6 mb 0.00 in0.0 mm 0.00 in0.0 mm 0.00 in0.0 mm
04:24 AM 48.6°F9.2°C 46.4°F8.0°C 92% Calm Calm -- 30.05 in1017.6 mb 0.00 in0.0 mm 0.00 in0.0 mm 0.00 in0.0 mm
04:26 AM 48.6°F9.2°C 46.4°F8.0°C 92% Calm Calm -- 30.05 in1017.6 mb 0.00 in0.0 mm 0.00 in0.0 mm 0.00 in0.0 mm
04:28 AM 48.5°F9.2°C 46.6°F8.1°C 93% Calm Calm -- 30.05 in1017.6 mb 0.00 in0.0 mm 0.00 in0.0 mm 0.00 in0.0 mm
04:30 AM 48.5°F9.2°C 46.6°F8.1°C 93% Calm Calm -- 30.05 in1017.6 mb 0.00 in0.0 mm 0.00 in0.0 mm 0.00 in0.0 mm
04:32 AM 48.5°F9.2°C 46.6°F8.1°C 93% Calm Calm -- 30.05 in1017.6 mb 0.00 in0.0 mm 0.00 in0.0 mm 0.00 in0.0 mm
04:34 AM 48.4°F9.1°C 46.5°F8.1°C 93% Calm Calm -- 30.05 in1017.6 mb 0.00 in0.0 mm 0.00 in0.0 mm 0.00 in0.0 mm
04:36 AM 48.5°F9.2°C 46.3°F7.9°C 92% Calm Calm -- 30.05 in1017.6 mb 0.00 in0.0 mm 0.00 in0.0 mm 0.00 in0.0 mm
04:38 AM 48.3°F9.1°C 46.1°F7.8°C 92% Calm Calm -- 30.05 in1017.6 mb 0.00 in0.0 mm 0.00 in0.0 mm 0.00 in0.0 mm
04:40 AM 48.3°F9.1°C 46.1°F7.8°C 92% Calm Calm -- 30.05 in1017.6 mb 0.00 in0.0 mm 0.00 in0.0 mm 0.00 in0.0 mm
04:42 AM 48.2°F9.0°C 46.3°F7.9°C 93% Calm Calm -- 30.05 in1017.6 mb 0.00 in0.0 mm 0.00 in0.0 mm 0.00 in0.0 mm
04:44 AM 48.2°F9.0°C 46.3°F7.9°C 93% Calm Calm -- 30.05 in1017.6 mb 0.00 in0.0 mm 0.00 in0.0 mm 0.00 in0.0 mm
04:46 AM 48.2°F9.0°C 46.6°F8.1°C 94% Calm Calm -- 30.05 in1017.6 mb 0.00 in0.0 mm 0.00 in0.0 mm 0.00 in0.0 mm
04:48 AM 48.3°F9.1°C 46.7°F8.2°C 94% Calm Calm -- 30.05 in1017.6 mb 0.00 in0.0 mm 0.00 in0.0 mm 0.00 in0.0 mm
04:50 AM 48.4°F9.1°C 46.5°F8.1°C 93% Calm Calm -- 30.05 in1017.6 mb 0.00 in0.0 mm 0.00 in0.0 mm 0.00 in0.0 mm
04:52 AM 48.3°F9.1°C 46.4°F8.0°C 93% Calm Calm -- 30.05 in1017.6 mb 0.00 in0.0 mm 0.00 in0.0 mm 0.00 in0.0 mm
04:54 AM 48.4°F9.1°C 46.5°F8.1°C 93% Calm Calm -- 30.05 in1017.6 mb 0.00 in0.0 mm 0.00 in0.0 mm 0.00 in0.0 mm
04:56 AM 48.4°F9.1°C 46.5°F8.1°C 93% Calm Calm -- 30.05 in1017.6 mb 0.00 in0.0 mm 0.00 in0.0 mm 0.00 in0.0 mm
04:58 AM 48.3°F9.1°C 46.4°F8.0°C 93% Calm Calm -- 30.05 in1017.6 mb 0.00 in0.0 mm 0.00 in0.0 mm 0.00 in0.0 mm
05:00 AM 48.3°F9.1°C 46.4°F8.0°C 93% Calm Calm -- 30.05 in1017.6 mb 0.00 in0.0 mm 0.00 in0.0 mm 0.00 in0.0 mm
05:02 AM 48.4°F9.1°C 46.5°F8.1°C 93% Calm Calm -- 30.05 in1017.6 mb 0.00 in0.0 mm 0.00 in0.0 mm 0.00 in0.0 mm
05:04 AM 48.4°F9.1°C 46.5°F8.1°C 93% Calm Calm -- 30.05 in1017.6 mb 0.00 in0.0 mm 0.00 in0.0 mm 0.00 in0.0 mm
05:06 AM 48.4°F9.1°C 46.8°F8.2°C 94% Calm Calm -- 30.05 in1017.6 mb 0.00 in0.0 mm 0.00 in0.0 mm 0.00 in0.0 mm
05:08 AM 48.4°F9.1°C 46.8°F8.2°C 94% Calm Calm -- 30.05 in1017.6 mb 0.00 in0.0 mm 0.00 in0.0 mm 0.00 in0.0 mm
05:10 AM 48.4°F9.1°C 46.8°F8.2°C 94% Calm Calm -- 30.05 in1017.6 mb 0.00 in0.0 mm 0.00 in0.0 mm 0.00 in0.0 mm
05:12 AM 48.4°F9.1°C 46.8°F8.2°C 94% Calm Calm -- 30.05 in1017.6 mb 0.00 in0.0 mm 0.00 in0.0 mm 0.00 in0.0 mm
05:14 AM 48.5°F9.2°C 46.6°F8.1°C 93% Calm Calm -- 30.05 in1017.6 mb 0.00 in0.0 mm 0.00 in0.0 mm 0.00 in0.0 mm
05:16 AM 48.4°F9.1°C 46.5°F8.1°C 93% Calm Calm -- 30.05 in1017.6 mb 0.00 in0.0 mm 0.00 in0.0 mm 0.00 in0.0 mm
05:18 AM 48.5°F9.2°C 46.6°F8.1°C 93% Calm Calm -- 30.05 in1017.6 mb 0.00 in0.0 mm 0.00 in0.0 mm 0.00 in0.0 mm
05:20 AM 48.4°F9.1°C 46.5°F8.1°C 93% Calm Calm -- 30.05 in1017.6 mb 0.00 in0.0 mm 0.00 in0.0 mm 0.00 in0.0 mm
05:22 AM 48.4°F9.1°C 46.8°F8.2°C 94% Calm Calm -- 30.05 in1017.6 mb 0.00 in0.0 mm 0.00 in0.0 mm 0.00 in0.0 mm
05:24 AM 48.4°F9.1°C 46.8°F8.2°C 94% Calm Calm -- 30.05 in1017.6 mb 0.00 in0.0 mm 0.00 in0.0 mm 0.00 in0.0 mm
05:26 AM 48.4°F9.1°C 46.8°F8.2°C 94% Calm Calm -- 30.05 in1017.6 mb 0.00 in0.0 mm 0.00 in0.0 mm 0.00 in0.0 mm
05:28 AM 48.5°F9.2°C 46.9°F8.3°C 94% Calm Calm -- 30.05 in1017.6 mb 0.00 in0.0 mm 0.00 in0.0 mm 0.00 in0.0 mm
05:30 AM 48.5°F9.2°C 46.9°F8.3°C 94% Calm Calm -- 30.06 in1017.9 mb 0.00 in0.0 mm 0.00 in0.0 mm 0.00 in0.0 mm
05:32 AM 48.5°F9.2°C 46.9°F8.3°C 94% Calm Calm -- 30.06 in1017.9 mb 0.00 in0.0 mm 0.00 in0.0 mm 0.00 in0.0 mm
05:34 AM 48.5°F9.2°C 46.9°F8.3°C 94% Calm Calm -- 30.06 in1017.9 mb 0.00 in0.0 mm 0.00 in0.0 mm 0.00 in0.0 mm
05:36 AM 48.5°F9.2°C 46.9°F8.3°C 94% Calm Calm -- 30.06 in1017.9 mb 0.00 in0.0 mm 0.00 in0.0 mm 0.00 in0.0 mm
05:38 AM 48.5°F9.2°C 46.9°F8.3°C 94% Calm Calm -- 30.06 in1017.9 mb 0.00 in0.0 mm 0.00 in0.0 mm 0.00 in0.0 mm
05:40 AM 48.5°F9.2°C 46.6°F8.1°C 93% Calm Calm -- 30.06 in1017.9 mb 0.00 in0.0 mm 0.00 in0.0 mm 0.00 in0.0 mm
05:42 AM 48.5°F9.2°C 46.6°F8.1°C 93% Calm Calm -- 30.05 in1017.6 mb 0.00 in0.0 mm 0.00 in0.0 mm 0.00 in0.0 mm
05:44 AM 48.5°F9.2°C 46.6°F8.1°C 93% Calm Calm -- 30.05 in1017.6 mb 0.00 in0.0 mm 0.00 in0.0 mm 0.00 in0.0 mm
05:46 AM 48.5°F9.2°C 46.6°F8.1°C 93% Calm Calm -- 30.06 in1017.9 mb 0.00 in0.0 mm 0.00 in0.0 mm 0.00 in0.0 mm
05:48 AM 48.5°F9.2°C 46.6°F8.1°C 93% Calm Calm -- 30.06 in1017.9 mb 0.00 in0.0 mm 0.00 in0.0 mm 0.00 in0.0 mm
05:50 AM 48.5°F9.2°C 46.6°F8.1°C 93% Calm Calm -- 30.06 in1017.9 mb 0.00 in0.0 mm 0.00 in0.0 mm 0.00 in0.0 mm
05:52 AM 48.4°F9.1°C 46.5°F8.1°C 93% Calm Calm -- 30.05 in1017.6 mb 0.00 in0.0 mm 0.00 in0.0 mm 0.00 in0.0 mm
05:54 AM 48.4°F9.1°C 46.5°F8.1°C 93% Calm Calm -- 30.05 in1017.6 mb 0.00 in0.0 mm 0.00 in0.0 mm 0.00 in0.0 mm
05:56 AM 48.4°F9.1°C 46.5°F8.1°C 93% Calm Calm -- 30.06 in1017.9 mb 0.00 in0.0 mm 0.00 in0.0 mm 0.00 in0.0 mm
05:58 AM 48.4°F9.1°C 46.5°F8.1°C 93% Calm Calm -- 30.06 in1017.9 mb 0.00 in0.0 mm 0.00 in0.0 mm 0.00 in0.0 mm
06:00 AM 48.4°F9.1°C 46.5°F8.1°C 93% Calm Calm -- 30.06 in1017.9 mb 0.00 in0.0 mm 0.00 in0.0 mm 0.00 in0.0 mm
06:02 AM 48.3°F9.1°C 46.4°F8.0°C 93% Calm Calm -- 30.06 in1017.9 mb 0.00 in0.0 mm 0.00 in0.0 mm 0.00 in0.0 mm
06:04 AM 48.2°F9.0°C 46.3°F7.9°C 93% Calm Calm -- 30.06 in1017.9 mb 0.00 in0.0 mm 0.00 in0.0 mm 0.00 in0.0 mm
06:06 AM 48.1°F8.9°C 46.2°F7.9°C 93% Calm Calm -- 30.06 in1017.9 mb 0.00 in0.0 mm 0.00 in0.0 mm 0.00 in0.0 mm
06:08 AM 48.0°F8.9°C 46.1°F7.8°C 93% Calm Calm -- 30.06 in1017.9 mb 0.00 in0.0 mm 0.00 in0.0 mm 0.00 in0.0 mm
06:10 AM 48.0°F8.9°C 46.1°F7.8°C 93% Calm Calm -- 30.06 in1017.9 mb 0.00 in0.0 mm 0.00 in0.0 mm 0.00 in0.0 mm
06:12 AM 47.9°F8.8°C 46.0°F7.8°C 93% Calm Calm -- 30.07 in1018.3 mb 0.00 in0.0 mm 0.00 in0.0 mm 0.00 in0.0 mm
06:14 AM 47.9°F8.8°C 46.0°F7.8°C 93% Calm Calm -- 30.07 in1018.3 mb 0.00 in0.0 mm 0.00 in0.0 mm 0.00 in0.0 mm
06:16 AM 47.9°F8.8°C 46.3°F7.9°C 94% Calm Calm -- 30.07 in1018.3 mb 0.00 in0.0 mm 0.00 in0.0 mm 0.00 in0.0 mm
06:18 AM 47.9°F8.8°C 46.3°F7.9°C 94% Calm Calm -- 30.07 in1018.3 mb 0.00 in0.0 mm 0.00 in0.0 mm 0.00 in0.0 mm
06:20 AM 47.9°F8.8°C 46.3°F7.9°C 94% Calm Calm -- 30.07 in1018.3 mb 0.00 in0.0 mm 0.00 in0.0 mm 0.00 in0.0 mm
06:22 AM 47.9°F8.8°C 46.5°F8.1°C 95% Calm Calm -- 30.07 in1018.3 mb 0.00 in0.0 mm 0.00 in0.0 mm 0.00 in0.0 mm
06:24 AM 48.0°F8.9°C 46.6°F8.1°C 95% Calm Calm -- 30.07 in1018.3 mb 0.00 in0.0 mm 0.00 in0.0 mm 0.00 in0.0 mm
06:26 AM 48.1°F8.9°C 46.7°F8.2°C 95% Calm Calm -- 30.07 in1018.3 mb 0.00 in0.0 mm 0.00 in0.0 mm 0.00 in0.0 mm
06:28 AM 48.2°F9.0°C 46.8°F8.2°C 95% Calm Calm -- 30.07 in1018.3 mb 0.00 in0.0 mm 0.00 in0.0 mm 0.00 in0.0 mm
06:30 AM 48.1°F8.9°C 46.7°F8.2°C 95% Calm Calm -- 30.07 in1018.3 mb 0.00 in0.0 mm 0.00 in0.0 mm 0.00 in0.0 mm
06:32 AM 48.1°F8.9°C 46.7°F8.2°C 95% Calm Calm -- 30.07 in1018.3 mb 0.00 in0.0 mm 0.00 in0.0 mm 0.00 in0.0 mm
06:34 AM 48.2°F9.0°C 46.8°F8.2°C 95% Calm Calm -- 30.07 in1018.3 mb 0.00 in0.0 mm 0.00 in0.0 mm 0.00 in0.0 mm
06:36 AM 48.2°F9.0°C 46.8°F8.2°C 95% Calm Calm -- 30.07 in1018.3 mb 0.00 in0.0 mm 0.00 in0.0 mm 0.00 in0.0 mm
06:38 AM 48.3°F9.1°C 46.9°F8.3°C 95% Calm Calm -- 30.07 in1018.3 mb 0.00 in0.0 mm 0.00 in0.0 mm 0.00 in0.0 mm
06:40 AM 48.3°F9.1°C 46.9°F8.3°C 95% Calm Calm -- 30.07 in1018.3 mb 0.00 in0.0 mm 0.00 in0.0 mm 0.00 in0.0 mm
06:42 AM 48.4°F9.1°C 47.0°F8.3°C 95% Calm Calm -- 30.07 in1018.3 mb 0.00 in0.0 mm 0.00 in0.0 mm 0.00 in0.0 mm
06:44 AM 48.4°F9.1°C 47.0°F8.3°C 95% Calm Calm -- 30.07 in1018.3 mb 0.00 in0.0 mm 0.00 in0.0 mm 0.00 in0.0 mm
06:46 AM 48.4°F9.1°C 47.0°F8.3°C 95% Calm Calm -- 30.07 in1018.3 mb 0.00 in0.0 mm 0.00 in0.0 mm 0.00 in0.0 mm
06:48 AM 48.4°F9.1°C 47.0°F8.3°C 95% Calm Calm -- 30.07 in1018.3 mb 0.00 in0.0 mm 0.00 in0.0 mm 0.00 in0.0 mm
06:50 AM 48.4°F9.1°C 47.0°F8.3°C 95% Calm Calm -- 30.07 in1018.3 mb 0.00 in0.0 mm 0.00 in0.0 mm 0.00 in0.0 mm
06:52 AM 48.5°F9.2°C 47.1°F8.4°C 95% Calm Calm -- 30.07 in1018.3 mb 0.00 in0.0 mm 0.00 in0.0 mm 0.00 in0.0 mm
06:54 AM 48.5°F9.2°C 47.1°F8.4°C 95% Calm Calm -- 30.07 in1018.3 mb 0.00 in0.0 mm 0.00 in0.0 mm 0.00 in0.0 mm
06:56 AM 48.5°F9.2°C 47.1°F8.4°C 95% Calm Calm -- 30.07 in1018.3 mb 0.00 in0.0 mm 0.00 in0.0 mm 0.00 in0.0 mm
06:58 AM 48.6°F9.2°C 47.2°F8.4°C 95% Calm Calm -- 30.07 in1018.3 mb 0.00 in0.0 mm 0.00 in0.0 mm 0.00 in0.0 mm
07:00 AM 48.6°F9.2°C 47.2°F8.4°C 95% Calm Calm -- 30.07 in1018.3 mb 0.00 in0.0 mm 0.00 in0.0 mm 0.00 in0.0 mm
07:02 AM 48.6°F9.2°C 47.2°F8.4°C 95% Calm Calm -- 30.07 in1018.3 mb 0.00 in0.0 mm 0.00 in0.0 mm 0.00 in0.0 mm
07:04 AM 48.6°F9.2°C 47.2°F8.4°C 95% Calm Calm -- 30.07 in1018.3 mb 0.00 in0.0 mm 0.00 in0.0 mm 0.00 in0.0 mm
07:06 AM 48.7°F9.3°C 47.3°F8.5°C 95% Calm Calm -- 30.07 in1018.3 mb 0.00 in0.0 mm 0.00 in0.0 mm 0.00 in0.0 mm
07:08 AM 48.8°F9.3°C 47.4°F8.6°C 95% Calm Calm -- 30.07 in1018.3 mb 0.00 in0.0 mm 0.00 in0.0 mm 0.00 in0.0 mm
07:10 AM 49.0°F9.4°C 47.6°F8.7°C 95% Calm Calm -- 30.07 in1018.3 mb 0.00 in0.0 mm 0.00 in0.0 mm 0.00 in0.0 mm
07:12 AM 49.0°F9.4°C 47.6°F8.7°C 95% Calm Calm -- 30.07 in1018.3 mb 0.00 in0.0 mm 0.00 in0.0 mm 0.00 in0.0 mm
07:14 AM 49.1°F9.5°C 47.7°F8.7°C 95% Calm Calm -- 30.07 in1018.3 mb 0.00 in0.0 mm 0.00 in0.0 mm 0.00 in0.0 mm
07:16 AM 49.2°F9.6°C 47.8°F8.8°C 95% Calm Calm -- 30.07 in1018.3 mb 0.00 in0.0 mm 0.00 in0.0 mm 0.00 in0.0 mm
07:18 AM 49.4°F9.7°C 48.0°F8.9°C 95% Calm Calm -- 30.07 in1018.3 mb 0.00 in0.0 mm 0.00 in0.0 mm 0.00 in0.0 mm
07:20 AM 49.5°F9.7°C 48.1°F8.9°C 95% Calm Calm -- 30.07 in1018.3 mb 0.00 in0.0 mm 0.00 in0.0 mm 0.00 in0.0 mm
07:22 AM 49.7°F9.8°C 48.3°F9.1°C 95% Calm Calm -- 30.07 in1018.3 mb 0.00 in0.0 mm 0.00 in0.0 mm 0.00 in0.0 mm
07:24 AM 49.8°F9.9°C 48.4°F9.1°C 95% Calm Calm -- 30.07 in1018.3 mb 0.00 in0.0 mm 0.00 in0.0 mm 0.00 in0.0 mm
07:26 AM 49.9°F9.9°C 48.2°F9.0°C 94% Calm Calm -- 30.07 in1018.3 mb 0.00 in0.0 mm 0.00 in0.0 mm 0.00 in0.0 mm
07:28 AM 50.1°F10.1°C 48.4°F9.1°C 94% Calm Calm -- 30.07 in1018.3 mb 0.00 in0.0 mm 0.00 in0.0 mm 0.00 in0.0 mm
07:30 AM 50.1°F10.1°C 48.4°F9.1°C 94% Calm Calm -- 30.07 in1018.3 mb 0.00 in0.0 mm 0.00 in0.0 mm 0.00 in0.0 mm
07:32 AM 50.2°F10.1°C 48.5°F9.2°C 94% Calm Calm -- 30.07 in1018.3 mb 0.00 in0.0 mm 0.00 in0.0 mm 0.00 in0.0 mm
07:34 AM 50.3°F10.2°C 48.6°F9.2°C 94% Calm Calm -- 30.07 in1018.3 mb 0.00 in0.0 mm 0.00 in0.0 mm 0.00 in0.0 mm
07:36 AM 50.4°F10.2°C 48.7°F9.3°C 94% Calm Calm -- 30.07 in1018.3 mb 0.00 in0.0 mm 0.00 in0.0 mm 0.00 in0.0 mm
07:38 AM 50.5°F10.3°C 48.8°F9.3°C 94% Calm Calm -- 30.07 in1018.3 mb 0.00 in0.0 mm 0.00 in0.0 mm 0.00 in0.0 mm
07:40 AM 50.5°F10.3°C 48.8°F9.3°C 94% Calm Calm -- 30.07 in1018.3 mb 0.00 in0.0 mm 0.00 in0.0 mm 0.00 in0.0 mm
07:42 AM 50.6°F10.3°C 48.9°F9.4°C 94% Calm Calm -- 30.07 in1018.3 mb 0.00 in0.0 mm 0.00 in0.0 mm 0.00 in0.0 mm
07:44 AM 50.7°F10.4°C 49.0°F9.4°C 94% Calm Calm -- 30.07 in1018.3 mb 0.00 in0.0 mm 0.00 in0.0 mm 0.00 in0.0 mm
07:46 AM 50.8°F10.4°C 48.8°F9.3°C 93% Calm Calm -- 30.07 in1018.3 mb 0.00 in0.0 mm 0.00 in0.0 mm 0.00 in0.0 mm
07:48 AM 50.9°F10.5°C 48.9°F9.4°C 93% Calm Calm -- 30.07 in1018.3 mb 0.00 in0.0 mm 0.00 in0.0 mm 0.00 in0.0 mm
07:50 AM 51.1°F10.6°C 49.1°F9.5°C 93% Calm Calm -- 30.07 in1018.3 mb 0.00 in0.0 mm 0.00 in0.0 mm 0.00 in0.0 mm
07:52 AM 51.3°F10.7°C 49.3°F9.6°C 93% Calm Calm -- 30.07 in1018.3 mb 0.00 in0.0 mm 0.00 in0.0 mm 0.00 in0.0 mm
07:54 AM 51.5°F10.8°C 49.5°F9.7°C 93% Calm Calm -- 30.07 in1018.3 mb 0.00 in0.0 mm 0.00 in0.0 mm 0.00 in0.0 mm
07:56 AM 51.8°F11.0°C 49.8°F9.9°C 93% Calm Calm -- 30.07 in1018.3 mb 0.00 in0.0 mm 0.00 in0.0 mm 0.00 in0.0 mm
07:58 AM 52.2°F11.2°C 50.2°F10.1°C 93% Calm Calm -- 30.07 in1018.3 mb 0.00 in0.0 mm 0.00 in0.0 mm 0.00 in0.0 mm
08:00 AM 52.5°F11.4°C 50.2°F10.1°C 92% Calm Calm -- 30.07 in1018.3 mb 0.00 in0.0 mm 0.00 in0.0 mm 0.00 in0.0 mm
08:02 AM 53.0°F11.7°C 50.4°F10.2°C 91% Calm Calm -- 30.07 in1018.3 mb 0.00 in0.0 mm 0.00 in0.0 mm 0.00 in0.0 mm
08:04 AM 53.3°F11.8°C 50.4°F10.2°C 90% Calm Calm 1.1 mph1.8 kmh 30.07 in1018.3 mb 0.00 in0.0 mm 0.00 in0.0 mm 0.00 in0.0 mm
08:06 AM 53.7°F12.1°C 50.8°F10.4°C 90% Calm Calm -- 30.08 in1018.6 mb 0.00 in0.0 mm 0.00 in0.0 mm 0.00 in0.0 mm
08:08 AM 54.1°F12.3°C 50.6°F10.3°C 88% Calm Calm 1.1 mph1.8 kmh 30.08 in1018.6 mb 0.00 in0.0 mm 0.00 in0.0 mm 0.00 in0.0 mm
08:10 AM 54.6°F12.6°C 50.8°F10.4°C 87% Calm Calm 2.3 mph3.7 kmh 30.08 in1018.6 mb 0.00 in0.0 mm 0.00 in0.0 mm 0.00 in0.0 mm
08:12 AM 55.1°F12.8°C 51.3°F10.7°C 87% Calm Calm -- 30.08 in1018.6 mb 0.00 in0.0 mm 0.00 in0.0 mm 0.00 in0.0 mm
08:14 AM 55.6°F13.1°C 51.2°F10.7°C 85% 1.0 mph SSE1.6 kmh SSE 1.1 mph1.8 kmh 30.07 in1018.3 mb 0.00 in0.0 mm 0.00 in0.0 mm 0.00 in0.0 mm
08:16 AM 56.0°F13.3°C 51.2°F10.7°C 84% Calm Calm -- 30.08 in1018.6 mb 0.00 in0.0 mm 0.00 in0.0 mm 0.00 in0.0 mm
08:18 AM 56.2°F13.4°C 51.4°F10.8°C 84% Calm Calm 1.1 mph1.8 kmh 30.08 in1018.6 mb 0.00 in0.0 mm 0.00 in0.0 mm 0.00 in0.0 mm
08:20 AM 56.6°F13.7°C 51.8°F11.0°C 84% Calm Calm 1.1 mph1.8 kmh 30.08 in1018.6 mb 0.00 in0.0 mm 0.00 in0.0 mm 0.00 in0.0 mm
08:22 AM 56.9°F13.8°C 51.1°F10.6°C 81% Calm Calm 1.1 mph1.8 kmh 30.08 in1018.6 mb 0.00 in0.0 mm 0.00 in0.0 mm 0.00 in0.0 mm
08:24 AM 57.2°F14.0°C 52.1°F11.2°C 83% Calm Calm 1.1 mph1.8 kmh 30.08 in1018.6 mb 0.00 in0.0 mm 0.00 in0.0 mm 0.00 in0.0 mm
08:26 AM 57.5°F14.2°C 51.7°F10.9°C 81% 2.0 mph SE3.2 kmh SE 2.3 mph3.7 kmh 30.08 in1018.6 mb 0.00 in0.0 mm 0.00 in0.0 mm 0.00 in0.0 mm
08:28 AM 58.0°F14.4°C 52.2°F11.2°C 81% Calm Calm 3.4 mph5.5 kmh 30.08 in1018.6 mb 0.00 in0.0 mm 0.00 in0.0 mm 0.00 in0.0 mm
08:30 AM 58.4°F14.7°C 52.9°F11.6°C 82% Calm Calm -- 30.08 in1018.6 mb 0.00 in0.0 mm 0.00 in0.0 mm 0.00 in0.0 mm
08:32 AM 58.7°F14.8°C 52.9°F11.6°C 81% Calm Calm -- 30.08 in1018.6 mb 0.00 in0.0 mm 0.00 in0.0 mm 0.00 in0.0 mm
08:34 AM 59.1°F15.1°C 52.9°F11.6°C 80% Calm Calm 1.1 mph1.8 kmh 30.08 in1018.6 mb 0.00 in0.0 mm 0.00 in0.0 mm 0.00 in0.0 mm
08:36 AM 59.5°F15.3°C 53.7°F12.1°C 81% Calm Calm 1.1 mph1.8 kmh 30.08 in1018.6 mb 0.00 in0.0 mm 0.00 in0.0 mm 0.00 in0.0 mm
08:38 AM 59.7°F15.4°C 52.5°F11.4°C 77% 2.0 mph SSE3.2 kmh SSE 4.6 mph7.4 kmh 30.08 in1018.6 mb 0.00 in0.0 mm 0.00 in0.0 mm 0.00 in0.0 mm
08:40 AM 60.0°F15.6°C 52.8°F11.6°C 77% 1.0 mph SSE1.6 kmh SSE 4.6 mph7.4 kmh 30.08 in1018.6 mb 0.00 in0.0 mm 0.00 in0.0 mm 0.00 in0.0 mm
08:42 AM 60.2°F15.7°C 52.6°F11.4°C 76% 2.0 mph SE3.2 kmh SE 4.6 mph7.4 kmh 30.08 in1018.6 mb 0.00 in0.0 mm 0.00 in0.0 mm 0.00 in0.0 mm
08:44 AM 60.4°F15.8°C 52.4°F11.3°C 75% 1.0 mph SE1.6 kmh SE 4.6 mph7.4 kmh 30.07 in1018.3 mb 0.00 in0.0 mm 0.00 in0.0 mm 0.00 in0.0 mm
08:46 AM 60.7°F15.9°C 52.7°F11.5°C 75% 1.0 mph S1.6 kmh S 4.6 mph7.4 kmh 30.07 in1018.3 mb 0.00 in0.0 mm 0.00 in0.0 mm 0.00 in0.0 mm
08:48 AM 60.9°F16.1°C 53.3°F11.8°C 76% 2.0 mph SE3.2 kmh SE 4.6 mph7.4 kmh 30.07 in1018.3 mb 0.00 in0.0 mm 0.00 in0.0 mm 0.00 in0.0 mm
08:50 AM 61.1°F16.2°C 52.4°F11.3°C 73% 4.0 mph ESE6.4 kmh ESE 8.0 mph12.9 kmh 30.08 in1018.6 mb 0.00 in0.0 mm 0.00 in0.0 mm 0.00 in0.0 mm
08:52 AM 61.2°F16.2°C 52.8°F11.6°C 74% 2.0 mph ESE3.2 kmh ESE 8.0 mph12.9 kmh 30.08 in1018.6 mb 0.00 in0.0 mm 0.00 in0.0 mm 0.00 in0.0 mm
08:54 AM 61.3°F16.3°C 52.6°F11.4°C 73% 1.0 mph SE1.6 kmh SE 8.0 mph12.9 kmh 30.08 in1018.6 mb 0.00 in0.0 mm 0.00 in0.0 mm 0.00 in0.0 mm
08:56 AM 61.6°F16.4°C 53.2°F11.8°C 74% 1.0 mph SE1.6 kmh SE 8.0 mph12.9 kmh 30.08 in1018.6 mb 0.00 in0.0 mm 0.00 in0.0 mm 0.00 in0.0 mm
08:58 AM 61.8°F16.6°C 52.7°F11.5°C 72% Calm Calm 8.0 mph12.9 kmh 30.08 in1018.6 mb 0.00 in0.0 mm 0.00 in0.0 mm 0.00 in0.0 mm
09:00 AM 62.1°F16.7°C 53.0°F11.7°C 72% 1.0 mph WSW1.6 kmh WSW 8.0 mph12.9 kmh 30.08 in1018.6 mb 0.00 in0.0 mm 0.00 in0.0 mm 0.00 in0.0 mm
09:02 AM 62.3°F16.8°C 53.2°F11.8°C 72% 2.0 mph SSE3.2 kmh SSE 8.0 mph12.9 kmh 30.08 in1018.6 mb 0.00 in0.0 mm 0.00 in0.0 mm 0.00 in0.0 mm
09:04 AM 62.5°F16.9°C 53.0°F11.7°C 71% 1.0 mph S1.6 kmh S 8.0 mph12.9 kmh 30.08 in1018.6 mb 0.00 in0.0 mm 0.00 in0.0 mm 0.00 in0.0 mm
09:06 AM 62.7°F17.1°C 53.2°F11.8°C 71% 2.0 mph ESE3.2 kmh ESE 8.0 mph12.9 kmh 30.07 in1018.3 mb 0.00 in0.0 mm 0.00 in0.0 mm 0.00 in0.0 mm
09:08 AM 63.0°F17.2°C 53.8°F12.1°C 72% 2.0 mph S3.2 kmh S 8.0 mph12.9 kmh 30.07 in1018.3 mb 0.00 in0.0 mm 0.00 in0.0 mm 0.00 in0.0 mm
09:10 AM 63.2°F17.3°C 53.2°F11.8°C 70% 3.0 mph SW4.8 kmh SW 4.6 mph7.4 kmh 30.07 in1018.3 mb 0.00 in0.0 mm 0.00 in0.0 mm 0.00 in0.0 mm
09:12 AM 63.4°F17.4°C 53.8°F12.1°C 71% 1.0 mph NE1.6 kmh NE 4.6 mph7.4 kmh 30.07 in1018.3 mb 0.00 in0.0 mm 0.00 in0.0 mm 0.00 in0.0 mm
09:14 AM 63.6°F17.6°C 53.2°F11.8°C 69% Calm Calm 4.6 mph7.4 kmh 30.08 in1018.6 mb 0.00 in0.0 mm 0.00 in0.0 mm 0.00 in0.0 mm
09:16 AM 63.8°F17.7°C 53.8°F12.1°C 70% 1.0 mph WNW1.6 kmh WNW 4.6 mph7.4 kmh 30.08 in1018.6 mb 0.00 in0.0 mm 0.00 in0.0 mm 0.00 in0.0 mm
09:18 AM 64.0°F17.8°C 54.0°F12.2°C 70% 2.0 mph SE3.2 kmh SE 4.6 mph7.4 kmh 30.07 in1018.3 mb 0.00 in0.0 mm 0.00 in0.0 mm 0.00 in0.0 mm
09:20 AM 64.3°F17.9°C 53.9°F12.2°C 69% Calm Calm 4.6 mph7.4 kmh 30.07 in1018.3 mb 0.00 in0.0 mm 0.00 in0.0 mm 0.00 in0.0 mm
09:22 AM 64.6°F18.1°C 54.2°F12.3°C 69% 1.0 mph SSE1.6 kmh SSE 4.6 mph7.4 kmh 30.07 in1018.3 mb 0.00 in0.0 mm 0.00 in0.0 mm 0.00 in0.0 mm
09:24 AM 64.8°F18.2°C 54.4°F12.4°C 69% Calm Calm 4.6 mph7.4 kmh 30.07 in1018.3 mb 0.00 in0.0 mm 0.00 in0.0 mm 0.00 in0.0 mm
09:26 AM 65.0°F18.3°C 53.8°F12.1°C 67% Calm Calm 4.6 mph7.4 kmh 30.07 in1018.3 mb 0.00 in0.0 mm 0.00 in0.0 mm 0.00 in0.0 mm
09:28 AM 65.3°F18.5°C 54.5°F12.5°C 68% Calm Calm 4.6 mph7.4 kmh 30.07 in1018.3 mb 0.00 in0.0 mm 0.00 in0.0 mm 0.00 in0.0 mm
09:30 AM 65.6°F18.7°C 55.9°F13.3°C 71% 1.0 mph SE1.6 kmh SE 4.6 mph7.4 kmh 30.07 in1018.3 mb 0.00 in0.0 mm 0.00 in0.0 mm 0.00 in0.0 mm
09:32 AM 65.9°F18.8°C 54.2°F12.3°C 66% Calm Calm 4.6 mph7.4 kmh 30.07 in1018.3 mb 0.00 in0.0 mm 0.00 in0.0 mm 0.00 in0.0 mm
09:34 AM 66.1°F18.9°C 55.2°F12.9°C 68% 1.0 mph SSE1.6 kmh SSE 4.6 mph7.4 kmh 30.07 in1018.3 mb 0.00 in0.0 mm 0.00 in0.0 mm 0.00 in0.0 mm
09:36 AM 66.2°F19.0°C 54.1°F12.3°C 65% 1.0 mph SE1.6 kmh SE 4.6 mph7.4 kmh 30.07 in1018.3 mb 0.00 in0.0 mm 0.00 in0.0 mm 0.00 in0.0 mm
09:38 AM 66.4°F19.1°C 54.3°F12.4°C 65% 1.0 mph WNW1.6 kmh WNW 4.6 mph7.4 kmh 30.06 in1017.9 mb 0.00 in0.0 mm 0.00 in0.0 mm 0.00 in0.0 mm
09:40 AM 66.6°F19.2°C 54.0°F12.2°C 64% 2.0 mph SSE3.2 kmh SSE 6.8 mph10.9 kmh 30.06 in1017.9 mb 0.00 in0.0 mm 0.00 in0.0 mm 0.00 in0.0 mm
09:42 AM 66.9°F19.4°C 55.2°F12.9°C 66% 2.0 mph SE3.2 kmh SE 6.8 mph10.9 kmh 30.06 in1017.9 mb 0.00 in0.0 mm 0.00 in0.0 mm 0.00 in0.0 mm
09:44 AM 67.1°F19.5°C 54.9°F12.7°C 65% Calm Calm 6.8 mph10.9 kmh 30.06 in1017.9 mb 0.00 in0.0 mm 0.00 in0.0 mm 0.00 in0.0 mm
09:46 AM 67.4°F19.7°C 53.9°F12.2°C 62% 2.0 mph SE3.2 kmh SE 9.1 mph14.6 kmh 30.06 in1017.9 mb 0.00 in0.0 mm 0.00 in0.0 mm 0.00 in0.0 mm
09:48 AM 67.5°F19.7°C 54.0°F12.2°C 62% 3.0 mph S4.8 kmh S 9.1 mph14.6 kmh 30.06 in1017.9 mb 0.00 in0.0 mm 0.00 in0.0 mm 0.00 in0.0 mm
09:50 AM 67.7°F19.8°C 54.2°F12.3°C 62% 2.0 mph S3.2 kmh S 9.1 mph14.6 kmh 30.06 in1017.9 mb 0.00 in0.0 mm 0.00 in0.0 mm 0.00 in0.0 mm
09:52 AM 67.9°F19.9°C 54.4°F12.4°C 62% Calm Calm 9.1 mph14.6 kmh 30.06 in1017.9 mb 0.00 in0.0 mm 0.00 in0.0 mm 0.00 in0.0 mm
09:54 AM 68.1°F20.1°C 55.0°F12.8°C 63% 1.0 mph SE1.6 kmh SE 9.1 mph14.6 kmh 30.06 in1017.9 mb 0.00 in0.0 mm 0.00 in0.0 mm 0.00 in0.0 mm
09:56 AM 68.4°F20.2°C 54.9°F12.7°C 62% 3.0 mph SW4.8 kmh SW 9.1 mph14.6 kmh 30.06 in1017.9 mb 0.00 in0.0 mm 0.00 in0.0 mm 0.00 in0.0 mm
09:58 AM 68.6°F20.3°C 54.6°F12.6°C 61% 1.0 mph ESE1.6 kmh ESE 9.1 mph14.6 kmh 30.06 in1017.9 mb 0.00 in0.0 mm 0.00 in0.0 mm 0.00 in0.0 mm
10:00 AM 68.9°F20.5°C 54.9°F12.7°C 61% 2.0 mph SSE3.2 kmh SSE 9.1 mph14.6 kmh 30.06 in1017.9 mb 0.00 in0.0 mm 0.00 in0.0 mm 0.00 in0.0 mm
10:02 AM 69.1°F20.6°C 54.6°F12.6°C 60% Calm Calm 9.1 mph14.6 kmh 30.06 in1017.9 mb 0.00 in0.0 mm 0.00 in0.0 mm 0.00 in0.0 mm
10:04 AM 69.3°F20.7°C 54.3°F12.4°C 59% 1.0 mph E1.6 kmh E 9.1 mph14.6 kmh 30.06 in1017.9 mb 0.00 in0.0 mm 0.00 in0.0 mm 0.00 in0.0 mm
10:06 AM 69.5°F20.8°C 55.4°F13.0°C 61% 1.0 mph NW1.6 kmh NW 4.6 mph7.4 kmh 30.06 in1017.9 mb 0.00 in0.0 mm 0.00 in0.0 mm 0.00 in0.0 mm
10:08 AM 69.7°F20.9°C 54.7°F12.6°C 59% Calm Calm 4.6 mph7.4 kmh 30.05 in1017.6 mb 0.00 in0.0 mm 0.00 in0.0 mm 0.00 in0.0 mm
10:10 AM 70.1°F21.2°C 56.0°F13.3°C 61% 2.0 mph SSE3.2 kmh SSE 4.6 mph7.4 kmh 30.05 in1017.6 mb 0.00 in0.0 mm 0.00 in0.0 mm 0.00 in0.0 mm
10:12 AM 70.4°F21.3°C 56.7°F13.7°C 62% 1.0 mph SW1.6 kmh SW 4.6 mph7.4 kmh 30.05 in1017.6 mb 0.00 in0.0 mm 0.00 in0.0 mm 0.00 in0.0 mm
10:14 AM 70.7°F21.5°C 55.7°F13.2°C 59% 2.0 mph SW3.2 kmh SW 4.6 mph7.4 kmh 30.05 in1017.6 mb 0.00 in0.0 mm 0.00 in0.0 mm 0.00 in0.0 mm
10:16 AM 70.9°F21.6°C 54.9°F12.7°C 57% 1.0 mph NNE1.6 kmh NNE 4.6 mph7.4 kmh 30.06 in1017.9 mb 0.00 in0.0 mm 0.00 in0.0 mm 0.00 in0.0 mm
10:18 AM 71.0°F21.7°C 55.0°F12.8°C 57% 2.0 mph SW3.2 kmh SW 6.8 mph10.9 kmh 30.05 in1017.6 mb 0.00 in0.0 mm 0.00 in0.0 mm 0.00 in0.0 mm
10:20 AM 71.1°F21.7°C 55.1°F12.8°C 57% 1.0 mph ESE1.6 kmh ESE 6.8 mph10.9 kmh 30.05 in1017.6 mb 0.00 in0.0 mm 0.00 in0.0 mm 0.00 in0.0 mm
10:22 AM 71.3°F21.8°C 56.2°F13.4°C 59% 1.0 mph S1.6 kmh S 6.8 mph10.9 kmh 30.05 in1017.6 mb 0.00 in0.0 mm 0.00 in0.0 mm 0.00 in0.0 mm
10:24 AM 71.5°F21.9°C 55.5°F13.1°C 57% 1.0 mph ENE1.6 kmh ENE 6.8 mph10.9 kmh 30.05 in1017.6 mb 0.00 in0.0 mm 0.00 in0.0 mm 0.00 in0.0 mm
10:26 AM 71.8°F22.1°C 55.2°F12.9°C 56% 2.0 mph W3.2 kmh W 6.8 mph10.9 kmh 30.05 in1017.6 mb 0.00 in0.0 mm 0.00 in0.0 mm 0.00 in0.0 mm
10:28 AM 71.9°F22.2°C 55.8°F13.2°C 57% 3.0 mph E4.8 kmh E 10.3 mph16.6 kmh 30.05 in1017.6 mb 0.00 in0.0 mm 0.00 in0.0 mm 0.00 in0.0 mm
10:30 AM 72.0°F22.2°C 54.9°F12.7°C 55% 1.0 mph E1.6 kmh E 10.3 mph16.6 kmh 30.05 in1017.6 mb 0.00 in0.0 mm 0.00 in0.0 mm 0.00 in0.0 mm
10:32 AM 72.1°F22.3°C 55.5°F13.1°C 56% Calm Calm 10.3 mph16.6 kmh 30.05 in1017.6 mb 0.00 in0.0 mm 0.00 in0.0 mm 0.00 in0.0 mm
10:34 AM 72.4°F22.4°C 57.2°F14.0°C 59% Calm Calm 10.3 mph16.6 kmh 30.04 in1017.3 mb 0.00 in0.0 mm 0.00 in0.0 mm 0.00 in0.0 mm
10:36 AM 72.6°F22.6°C 55.0°F12.8°C 54% Calm Calm 10.3 mph16.6 kmh 30.04 in1017.3 mb 0.00 in0.0 mm 0.00 in0.0 mm 0.00 in0.0 mm
10:38 AM 72.9°F22.7°C 56.3°F13.5°C 56% 2.0 mph SE3.2 kmh SE 10.3 mph16.6 kmh 30.04 in1017.3 mb 0.00 in0.0 mm 0.00 in0.0 mm 0.00 in0.0 mm
10:40 AM 73.1°F22.8°C 54.9°F12.7°C 53% Calm Calm 10.3 mph16.6 kmh 30.04 in1017.3 mb 0.00 in0.0 mm 0.00 in0.0 mm 0.00 in0.0 mm
10:42 AM 73.3°F22.9°C 56.6°F13.7°C 56% Calm Calm 10.3 mph16.6 kmh 30.03 in1016.9 mb 0.00 in0.0 mm 0.00 in0.0 mm 0.00 in0.0 mm
10:44 AM 73.6°F23.1°C 55.9°F13.3°C 54% 2.0 mph SW3.2 kmh SW 10.3 mph16.6 kmh 30.03 in1016.9 mb 0.00 in0.0 mm 0.00 in0.0 mm 0.00 in0.0 mm
10:46 AM 73.7°F23.2°C 56.5°F13.6°C 55% 2.0 mph NE3.2 kmh NE 10.3 mph16.6 kmh 30.03 in1016.9 mb 0.00 in0.0 mm 0.00 in0.0 mm 0.00 in0.0 mm
10:48 AM 73.9°F23.3°C 55.7°F13.2°C 53% 1.0 mph SSW1.6 kmh SSW 8.0 mph12.9 kmh 30.03 in1016.9 mb 0.00 in0.0 mm 0.00 in0.0 mm 0.00 in0.0 mm
10:50 AM 74.1°F23.4°C 55.3°F12.9°C 52% 4.0 mph S6.4 kmh S 8.0 mph12.9 kmh 30.03 in1016.9 mb 0.00 in0.0 mm 0.00 in0.0 mm 0.00 in0.0 mm
10:52 AM 74.3°F23.5°C 55.0°F12.8°C 51% 6.0 mph SSE9.7 kmh SSE 8.0 mph12.9 kmh 30.03 in1016.9 mb 0.00 in0.0 mm 0.00 in0.0 mm 0.00 in0.0 mm
10:54 AM 74.5°F23.6°C 55.2°F12.9°C 51% Calm Calm 8.0 mph12.9 kmh 30.03 in1016.9 mb 0.00 in0.0 mm 0.00 in0.0 mm 0.00 in0.0 mm
10:56 AM 74.7°F23.7°C 56.4°F13.6°C 53% 4.0 mph SW6.4 kmh SW 8.0 mph12.9 kmh 30.03 in1016.9 mb 0.00 in0.0 mm 0.00 in0.0 mm 0.00 in0.0 mm
10:58 AM 74.9°F23.8°C 55.5°F13.1°C 51% 2.0 mph E3.2 kmh E 9.1 mph14.6 kmh 30.02 in1016.6 mb 0.00 in0.0 mm 0.00 in0.0 mm 0.00 in0.0 mm
11:00 AM 75.2°F24.0°C 55.8°F13.2°C 51% 6.0 mph SSE9.7 kmh SSE 9.1 mph14.6 kmh 30.02 in1016.6 mb 0.00 in0.0 mm 0.00 in0.0 mm 0.00 in0.0 mm
11:02 AM 75.4°F24.1°C 56.0°F13.3°C 51% 2.0 mph SSW3.2 kmh SSW 9.1 mph14.6 kmh 30.02 in1016.6 mb 0.00 in0.0 mm 0.00 in0.0 mm 0.00 in0.0 mm
11:04 AM 75.7°F24.3°C 55.2°F12.9°C 49% 3.0 mph S4.8 kmh S 10.3 mph16.6 kmh 30.02 in1016.6 mb 0.00 in0.0 mm 0.00 in0.0 mm 0.00 in0.0 mm
11:06 AM 75.8°F24.3°C 55.8°F13.2°C 50% 3.0 mph SW4.8 kmh SW 10.3 mph16.6 kmh 30.02 in1016.6 mb 0.00 in0.0 mm 0.00 in0.0 mm 0.00 in0.0 mm
11:08 AM 76.0°F24.4°C 55.4°F13.0°C 49% 3.0 mph SSW4.8 kmh SSW 10.3 mph16.6 kmh 30.02 in1016.6 mb 0.00 in0.0 mm 0.00 in0.0 mm 0.00 in0.0 mm
11:10 AM 76.3°F24.6°C 54.0°F12.2°C 46% 7.0 mph WNW11.3 kmh WNW 10.3 mph16.6 kmh 30.02 in1016.6 mb 0.00 in0.0 mm 0.00 in0.0 mm 0.00 in0.0 mm
11:12 AM 76.4°F24.7°C 54.1°F12.3°C 46% 9.0 mph ESE14.5 kmh ESE 10.3 mph16.6 kmh 30.02 in1016.6 mb 0.00 in0.0 mm 0.00 in0.0 mm 0.00 in0.0 mm
11:14 AM 76.6°F24.8°C 53.6°F12.0°C 45% 1.0 mph SW1.6 kmh SW 11.4 mph18.3 kmh 30.02 in1016.6 mb 0.00 in0.0 mm 0.00 in0.0 mm 0.00 in0.0 mm
11:16 AM 76.7°F24.8°C 53.1°F11.7°C 44% 4.0 mph SE6.4 kmh SE 11.4 mph18.3 kmh 30.02 in1016.6 mb 0.00 in0.0 mm 0.00 in0.0 mm 0.00 in0.0 mm
11:18 AM 76.8°F24.9°C 52.6°F11.4°C 43% 3.0 mph WSW4.8 kmh WSW 11.4 mph18.3 kmh 30.02 in1016.6 mb 0.00 in0.0 mm 0.00 in0.0 mm 0.00 in0.0 mm
11:20 AM 76.8°F24.9°C 52.6°F11.4°C 43% 7.0 mph ESE11.3 kmh ESE 13.7 mph22.0 kmh 30.02 in1016.6 mb 0.00 in0.0 mm 0.00 in0.0 mm 0.00 in0.0 mm
11:22 AM 76.8°F24.9°C 53.2°F11.8°C 44% 6.0 mph S9.7 kmh S 13.7 mph22.0 kmh 30.02 in1016.6 mb 0.00 in0.0 mm 0.00 in0.0 mm 0.00 in0.0 mm
11:24 AM 76.9°F24.9°C 52.7°F11.5°C 43% 2.0 mph NW3.2 kmh NW 13.7 mph22.0 kmh 30.01 in1016.3 mb 0.00 in0.0 mm 0.00 in0.0 mm 0.00 in0.0 mm
11:26 AM 77.1°F25.1°C 52.9°F11.6°C 43% 4.0 mph S6.4 kmh S 13.7 mph22.0 kmh 30.02 in1016.6 mb 0.00 in0.0 mm 0.00 in0.0 mm 0.00 in0.0 mm
11:28 AM 77.1°F25.1°C 52.9°F11.6°C 43% 4.0 mph NW6.4 kmh NW 13.7 mph22.0 kmh 30.01 in1016.3 mb 0.00 in0.0 mm 0.00 in0.0 mm 0.00 in0.0 mm
11:30 AM 77.3°F25.2°C 53.7°F12.1°C 44% 9.0 mph E14.5 kmh E 13.7 mph22.0 kmh 30.01 in1016.3 mb 0.00 in0.0 mm 0.00 in0.0 mm 0.00 in0.0 mm
11:32 AM 77.4°F25.2°C 52.5°F11.4°C 42% 3.0 mph NW4.8 kmh NW 13.7 mph22.0 kmh 30.01 in1016.3 mb 0.00 in0.0 mm 0.00 in0.0 mm 0.00 in0.0 mm
11:34 AM 77.5°F25.3°C 55.1°F12.8°C 46% 4.0 mph WSW6.4 kmh WSW 13.7 mph22.0 kmh 30.01 in1016.3 mb 0.00 in0.0 mm 0.00 in0.0 mm 0.00 in0.0 mm
11:36 AM 77.7°F25.4°C 54.6°F12.6°C 45% 1.0 mph E1.6 kmh E 13.7 mph22.0 kmh 30.01 in1016.3 mb 0.00 in0.0 mm 0.00 in0.0 mm 0.00 in0.0 mm
11:38 AM 78.0°F25.6°C 53.7°F12.1°C 43% 6.0 mph SSE9.7 kmh SSE 13.7 mph22.0 kmh 30.01 in1016.3 mb 0.00 in0.0 mm 0.00 in0.0 mm 0.00 in0.0 mm
11:40 AM 78.1°F25.6°C 54.4°F12.4°C 44% 2.0 mph SSW3.2 kmh SSW 12.5 mph20.1 kmh 30.00 in1015.9 mb 0.00 in0.0 mm 0.00 in0.0 mm 0.00 in0.0 mm
11:42 AM 78.3°F25.7°C 54.6°F12.6°C 44% 3.0 mph W4.8 kmh W 12.5 mph20.1 kmh 30.00 in1015.9 mb 0.00 in0.0 mm 0.00 in0.0 mm 0.00 in0.0 mm
11:44 AM 78.3°F25.7°C 54.6°F12.6°C 44% 4.0 mph SE6.4 kmh SE 12.5 mph20.1 kmh 30.00 in1015.9 mb 0.00 in0.0 mm 0.00 in0.0 mm 0.00 in0.0 mm
11:46 AM 78.5°F25.8°C 54.7°F12.6°C 44% 3.0 mph SSE4.8 kmh SSE 12.5 mph20.1 kmh 30.01 in1016.3 mb 0.00 in0.0 mm 0.00 in0.0 mm 0.00 in0.0 mm
11:48 AM 78.7°F25.9°C 55.5°F13.1°C 45% 2.0 mph NNW3.2 kmh NNW 12.5 mph20.1 kmh 30.01 in1016.3 mb 0.00 in0.0 mm 0.00 in0.0 mm 0.00 in0.0 mm
11:50 AM 78.9°F26.1°C 55.1°F12.8°C 44% Calm Calm 12.5 mph20.1 kmh 30.00 in1015.9 mb 0.00 in0.0 mm 0.00 in0.0 mm 0.00 in0.0 mm
11:52 AM 79.0°F26.1°C 55.2°F12.9°C 44% 1.0 mph SSW1.6 kmh SSW 12.5 mph20.1 kmh 30.00 in1015.9 mb 0.00 in0.0 mm 0.00 in0.0 mm 0.00 in0.0 mm
11:54 AM 79.2°F26.2°C 53.4°F11.9°C 41% 3.0 mph SW4.8 kmh SW 12.5 mph20.1 kmh 30.00 in1015.9 mb 0.00 in0.0 mm 0.00 in0.0 mm 0.00 in0.0 mm
11:56 AM 79.3°F26.3°C 54.8°F12.7°C 43% Calm Calm 12.5 mph20.1 kmh 30.00 in1015.9 mb 0.00 in0.0 mm 0.00 in0.0 mm 0.00 in0.0 mm
11:58 AM 79.5°F26.4°C 55.0°F12.8°C 43% 5.0 mph E8.0 kmh E 12.5 mph20.1 kmh 30.00 in1015.9 mb 0.00 in0.0 mm 0.00 in0.0 mm 0.00 in0.0 mm
12:00 PM 79.7°F26.5°C 53.9°F12.2°C 41% 4.0 mph S6.4 kmh S 12.5 mph20.1 kmh 30.00 in1015.9 mb 0.00 in0.0 mm 0.00 in0.0 mm 0.00 in0.0 mm
12:02 PM 79.7°F26.5°C 53.9°F12.2°C 41% 3.0 mph E4.8 kmh E 12.5 mph20.1 kmh 30.00 in1015.9 mb 0.00 in0.0 mm 0.00 in0.0 mm 0.00 in0.0 mm
12:04 PM 79.8°F26.6°C 54.6°F12.6°C 42% 3.0 mph NW4.8 kmh NW 9.1 mph14.6 kmh 30.00 in1015.9 mb 0.00 in0.0 mm 0.00 in0.0 mm 0.00 in0.0 mm
12:06 PM 80.0°F26.7°C 53.5°F11.9°C 40% 1.0 mph ESE1.6 kmh ESE 9.1 mph14.6 kmh 30.00 in1015.9 mb 0.00 in0.0 mm 0.00 in0.0 mm 0.00 in0.0 mm
12:08 PM 80.1°F26.7°C 56.2°F13.4°C 44% 3.0 mph S4.8 kmh S 9.1 mph14.6 kmh 30.00 in1015.9 mb 0.00 in0.0 mm 0.00 in0.0 mm 0.00 in0.0 mm
12:10 PM 80.2°F26.8°C 53.7°F12.1°C 40% 1.0 mph SSW1.6 kmh SSW 9.1 mph14.6 kmh 30.00 in1015.9 mb 0.00 in0.0 mm 0.00 in0.0 mm 0.00 in0.0 mm
12:12 PM 80.3°F26.8°C 53.1°F11.7°C 39% 5.0 mph SE8.0 kmh SE 9.1 mph14.6 kmh 30.00 in1015.9 mb 0.00 in0.0 mm 0.00 in0.0 mm 0.00 in0.0 mm
12:14 PM 80.4°F26.9°C 52.4°F11.3°C 38% Calm Calm 8.0 mph12.9 kmh 30.00 in1015.9 mb 0.00 in0.0 mm 0.00 in0.0 mm 0.00 in0.0 mm
12:16 PM 80.5°F26.9°C 53.2°F11.8°C 39% 4.0 mph SSW6.4 kmh SSW 9.1 mph14.6 kmh 30.00 in1015.9 mb 0.00 in0.0 mm 0.00 in0.0 mm 0.00 in0.0 mm
12:18 PM 80.6°F27.0°C 54.0°F12.2°C 40% 1.0 mph NNE1.6 kmh NNE 9.1 mph14.6 kmh 30.00 in1015.9 mb 0.00 in0.0 mm 0.00 in0.0 mm 0.00 in0.0 mm
12:20 PM 80.7°F27.1°C 53.4°F11.9°C 39% 2.0 mph E3.2 kmh E 9.1 mph14.6 kmh 30.00 in1015.9 mb 0.00 in0.0 mm 0.00 in0.0 mm 0.00 in0.0 mm
12:22 PM 80.9°F27.2°C 55.0°F12.8°C 41% 3.0 mph SW4.8 kmh SW 9.1 mph14.6 kmh 30.00 in1015.9 mb 0.00 in0.0 mm 0.00 in0.0 mm 0.00 in0.0 mm
12:24 PM 81.1°F27.3°C 53.1°F11.7°C 38% 2.0 mph SSW3.2 kmh SSW 9.1 mph14.6 kmh 30.00 in1015.9 mb 0.00 in0.0 mm 0.00 in0.0 mm 0.00 in0.0 mm
12:26 PM 81.1°F27.3°C 53.1°F11.7°C 38% 3.0 mph W4.8 kmh W 9.1 mph14.6 kmh 30.00 in1015.9 mb 0.00 in0.0 mm 0.00 in0.0 mm 0.00 in0.0 mm
12:28 PM 81.1°F27.3°C 52.3°F11.3°C 37% 2.0 mph SSE3.2 kmh SSE 9.1 mph14.6 kmh 30.00 in1015.9 mb 0.00 in0.0 mm 0.00 in0.0 mm 0.00 in0.0 mm
12:30 PM 80.9°F27.2°C 52.9°F11.6°C 38% 1.0 mph SE1.6 kmh SE 9.1 mph14.6 kmh 30.00 in1015.9 mb 0.00 in0.0 mm 0.00 in0.0 mm 0.00 in0.0 mm
12:32 PM 81.1°F27.3°C 53.1°F11.7°C 38% 4.0 mph W6.4 kmh W 11.4 mph18.3 kmh 30.00 in1015.9 mb 0.00 in0.0 mm 0.00 in0.0 mm 0.00 in0.0 mm
12:34 PM 81.1°F27.3°C 53.1°F11.7°C 38% 2.0 mph SW3.2 kmh SW 11.4 mph18.3 kmh 30.00 in1015.9 mb 0.00 in0.0 mm 0.00 in0.0 mm 0.00 in0.0 mm
12:36 PM 81.1°F27.3°C 53.1°F11.7°C 38% 2.0 mph S3.2 kmh S 11.4 mph18.3 kmh 29.99 in1015.6 mb 0.00 in0.0 mm 0.00 in0.0 mm 0.00 in0.0 mm
12:38 PM 81.2°F27.3°C 52.4°F11.3°C 37% 4.0 mph NW6.4 kmh NW 11.4 mph18.3 kmh 29.99 in1015.6 mb 0.00 in0.0 mm 0.00 in0.0 mm 0.00 in0.0 mm
12:40 PM 81.3°F27.4°C 52.5°F11.4°C 37% 2.0 mph S3.2 kmh S 11.4 mph18.3 kmh 29.99 in1015.6 mb 0.00 in0.0 mm 0.00 in0.0 mm 0.00 in0.0 mm
12:42 PM 81.4°F27.4°C 53.3°F11.8°C 38% 2.0 mph W3.2 kmh W 11.4 mph18.3 kmh 29.99 in1015.6 mb 0.00 in0.0 mm 0.00 in0.0 mm 0.00 in0.0 mm
12:44 PM 81.6°F27.6°C 52.8°F11.6°C 37% 1.0 mph NNW1.6 kmh NNW 11.4 mph18.3 kmh 29.99 in1015.6 mb 0.00 in0.0 mm 0.00 in0.0 mm 0.00 in0.0 mm
12:46 PM 81.8°F27.7°C 53.0°F11.7°C 37% 1.0 mph N1.6 kmh N 11.4 mph18.3 kmh 29.99 in1015.6 mb 0.00 in0.0 mm 0.00 in0.0 mm 0.00 in0.0 mm
12:48 PM 82.0°F27.8°C 51.6°F10.9°C 35% 2.0 mph NW3.2 kmh NW 11.4 mph18.3 kmh 29.99 in1015.6 mb 0.00 in0.0 mm 0.00 in0.0 mm 0.00 in0.0 mm
12:50 PM 81.9°F27.7°C 52.3°F11.3°C 36% 3.0 mph WSW4.8 kmh WSW 11.4 mph18.3 kmh 29.99 in1015.6 mb 0.00 in0.0 mm 0.00 in0.0 mm 0.00 in0.0 mm
12:52 PM 81.9°F27.7°C 52.3°F11.3°C 36% 1.0 mph S1.6 kmh S 9.1 mph14.6 kmh 29.99 in1015.6 mb 0.00 in0.0 mm 0.00 in0.0 mm 0.00 in0.0 mm
12:54 PM 82.0°F27.8°C 53.1°F11.7°C 37% 3.0 mph N4.8 kmh N 9.1 mph14.6 kmh 29.99 in1015.6 mb 0.00 in0.0 mm 0.00 in0.0 mm 0.00 in0.0 mm
12:56 PM 82.0°F27.8°C 50.8°F10.4°C 34% 2.0 mph SSW3.2 kmh SSW 9.1 mph14.6 kmh 29.98 in1015.2 mb 0.00 in0.0 mm 0.00 in0.0 mm 0.00 in0.0 mm
12:58 PM 82.0°F27.8°C 53.1°F11.7°C 37% 4.0 mph WSW6.4 kmh WSW 9.1 mph14.6 kmh 29.98 in1015.2 mb 0.00 in0.0 mm 0.00 in0.0 mm 0.00 in0.0 mm
01:00 PM 82.1°F27.8°C 52.5°F11.4°C 36% 4.0 mph NW6.4 kmh NW 9.1 mph14.6 kmh 29.98 in1015.2 mb 0.00 in0.0 mm 0.00 in0.0 mm 0.00 in0.0 mm
01:02 PM 82.2°F27.9°C 52.6°F11.4°C 36% 1.0 mph WSW1.6 kmh WSW 9.1 mph14.6 kmh 29.98 in1015.2 mb 0.00 in0.0 mm 0.00 in0.0 mm 0.00 in0.0 mm
01:04 PM 82.4°F28.0°C 54.2°F12.3°C 38% 3.0 mph S4.8 kmh S 9.1 mph14.6 kmh 29.98 in1015.2 mb 0.00 in0.0 mm 0.00 in0.0 mm 0.00 in0.0 mm
01:06 PM 82.5°F28.1°C 53.6°F12.0°C 37% 3.0 mph NE4.8 kmh NE 9.1 mph14.6 kmh 29.98 in1015.2 mb 0.00 in0.0 mm 0.00 in0.0 mm 0.00 in0.0 mm
01:08 PM 82.7°F28.2°C 56.6°F13.7°C 41% 2.0 mph E3.2 kmh E 9.1 mph14.6 kmh 29.98 in1015.2 mb 0.00 in0.0 mm 0.00 in0.0 mm 0.00 in0.0 mm
01:10 PM 82.9°F28.3°C 56.8°F13.8°C 41% 2.0 mph NW3.2 kmh NW 9.1 mph14.6 kmh 29.98 in1015.2 mb 0.00 in0.0 mm 0.00 in0.0 mm 0.00 in0.0 mm
01:12 PM 83.0°F28.3°C 54.0°F12.2°C 37% 4.0 mph NW6.4 kmh NW 8.0 mph12.9 kmh 29.98 in1015.2 mb 0.00 in0.0 mm 0.00 in0.0 mm 0.00 in0.0 mm
01:14 PM 83.0°F28.3°C 54.0°F12.2°C 37% 4.0 mph WSW6.4 kmh WSW 9.1 mph14.6 kmh 29.98 in1015.2 mb 0.00 in0.0 mm 0.00 in0.0 mm 0.00 in0.0 mm
01:16 PM 82.9°F28.3°C 53.2°F11.8°C 36% Calm Calm 9.1 mph14.6 kmh 29.98 in1015.2 mb 0.00 in0.0 mm 0.00 in0.0 mm 0.00 in0.0 mm
01:18 PM 82.8°F28.2°C 53.1°F11.7°C 36% 3.0 mph WSW4.8 kmh WSW 9.1 mph14.6 kmh 29.98 in1015.2 mb 0.00 in0.0 mm 0.00 in0.0 mm 0.00 in0.0 mm
01:20 PM 82.8°F28.2°C 52.3°F11.3°C 35% 3.0 mph SSW4.8 kmh SSW 9.1 mph14.6 kmh 29.98 in1015.2 mb 0.00 in0.0 mm 0.00 in0.0 mm 0.00 in0.0 mm
01:22 PM 82.7°F28.2°C 52.2°F11.2°C 35% 3.0 mph WSW4.8 kmh WSW 9.1 mph14.6 kmh 29.98 in1015.2 mb 0.00 in0.0 mm 0.00 in0.0 mm 0.00 in0.0 mm
01:24 PM 82.7°F28.2°C 53.0°F11.7°C 36% 1.0 mph SSE1.6 kmh SSE 9.1 mph14.6 kmh 29.98 in1015.2 mb 0.00 in0.0 mm 0.00 in0.0 mm 0.00 in0.0 mm
01:26 PM 82.9°F28.3°C 53.2°F11.8°C 36% 3.0 mph S4.8 kmh S 9.1 mph14.6 kmh 29.98 in1015.2 mb 0.00 in0.0 mm 0.00 in0.0 mm 0.00 in0.0 mm
01:28 PM 82.9°F28.3°C 53.2°F11.8°C 36% 2.0 mph SW3.2 kmh SW 9.1 mph14.6 kmh 29.98 in1015.2 mb 0.00 in0.0 mm 0.00 in0.0 mm 0.00 in0.0 mm
01:30 PM 83.0°F28.3°C 51.7°F10.9°C 34% 3.0 mph NW4.8 kmh NW 9.1 mph14.6 kmh 29.98 in1015.2 mb 0.00 in0.0 mm 0.00 in0.0 mm 0.00 in0.0 mm
01:32 PM 83.1°F28.4°C 51.8°F11.0°C 34% 3.0 mph NW4.8 kmh NW 9.1 mph14.6 kmh 29.97 in1014.9 mb 0.00 in0.0 mm 0.00 in0.0 mm 0.00 in0.0 mm
01:34 PM 83.2°F28.4°C 52.7°F11.5°C 35% 2.0 mph NW3.2 kmh NW 8.0 mph12.9 kmh 29.98 in1015.2 mb 0.00 in0.0 mm 0.00 in0.0 mm 0.00 in0.0 mm
01:36 PM 83.2°F28.4°C 52.7°F11.5°C 35% 4.0 mph W6.4 kmh W 8.0 mph12.9 kmh 29.98 in1015.2 mb 0.00 in0.0 mm 0.00 in0.0 mm 0.00 in0.0 mm
01:38 PM 83.3°F28.5°C 54.3°F12.4°C 37% 1.0 mph NW1.6 kmh NW 8.0 mph12.9 kmh 29.98 in1015.2 mb 0.00 in0.0 mm 0.00 in0.0 mm 0.00 in0.0 mm
01:40 PM 83.4°F28.6°C 52.8°F11.6°C 35% 2.0 mph W3.2 kmh W 9.1 mph14.6 kmh 29.97 in1014.9 mb 0.00 in0.0 mm 0.00 in0.0 mm 0.00 in0.0 mm
01:42 PM 83.4°F28.6°C 53.6°F12.0°C 36% 3.0 mph E4.8 kmh E 9.1 mph14.6 kmh 29.97 in1014.9 mb 0.00 in0.0 mm 0.00 in0.0 mm 0.00 in0.0 mm
01:44 PM 83.5°F28.6°C 52.9°F11.6°C 35% Calm Calm 9.1 mph14.6 kmh 29.97 in1014.9 mb 0.00 in0.0 mm 0.00 in0.0 mm 0.00 in0.0 mm
01:46 PM 83.4°F28.6°C 52.8°F11.6°C 35% 3.0 mph WSW4.8 kmh WSW 9.1 mph14.6 kmh 29.97 in1014.9 mb 0.00 in0.0 mm 0.00 in0.0 mm 0.00 in0.0 mm
01:48 PM 83.3°F28.5°C 52.8°F11.6°C 35% 3.0 mph SW4.8 kmh SW 9.1 mph14.6 kmh 29.97 in1014.9 mb 0.00 in0.0 mm 0.00 in0.0 mm 0.00 in0.0 mm
01:50 PM 83.5°F28.6°C 53.7°F12.1°C 36% 1.0 mph S1.6 kmh S 9.1 mph14.6 kmh 29.97 in1014.9 mb 0.00 in0.0 mm 0.00 in0.0 mm 0.00 in0.0 mm
01:52 PM 83.6°F28.7°C 53.0°F11.7°C 35% 2.0 mph S3.2 kmh S 11.4 mph18.3 kmh 29.97 in1014.9 mb 0.00 in0.0 mm 0.00 in0.0 mm 0.00 in0.0 mm
01:54 PM 83.7°F28.7°C 52.3°F11.3°C 34% 2.0 mph S3.2 kmh S 11.4 mph18.3 kmh 29.97 in1014.9 mb 0.00 in0.0 mm 0.00 in0.0 mm 0.00 in0.0 mm
01:56 PM 83.9°F28.8°C 53.3°F11.8°C 35% 3.0 mph S4.8 kmh S 11.4 mph18.3 kmh 29.97 in1014.9 mb 0.00 in0.0 mm 0.00 in0.0 mm 0.00 in0.0 mm
01:58 PM 84.1°F28.9°C 54.2°F12.3°C 36% Calm Calm 11.4 mph18.3 kmh 29.97 in1014.9 mb 0.00 in0.0 mm 0.00 in0.0 mm 0.00 in0.0 mm
02:00 PM 84.2°F29.0°C 54.3°F12.4°C 36% 3.0 mph N4.8 kmh N 11.4 mph18.3 kmh 29.97 in1014.9 mb 0.00 in0.0 mm 0.00 in0.0 mm 0.00 in0.0 mm
02:02 PM 84.4°F29.1°C 53.7°F12.1°C 35% 1.0 mph WSW1.6 kmh WSW 11.4 mph18.3 kmh 29.97 in1014.9 mb 0.00 in0.0 mm 0.00 in0.0 mm 0.00 in0.0 mm
02:04 PM 84.7°F29.3°C 53.2°F11.8°C 34% 1.0 mph W1.6 kmh W 11.4 mph18.3 kmh 29.97 in1014.9 mb 0.00 in0.0 mm 0.00 in0.0 mm 0.00 in0.0 mm
02:06 PM 84.8°F29.3°C 52.5°F11.4°C 33% 3.0 mph SSW4.8 kmh SSW 11.4 mph18.3 kmh 29.97 in1014.9 mb 0.00 in0.0 mm 0.00 in0.0 mm 0.00 in0.0 mm
02:08 PM 84.8°F29.3°C 53.3°F11.8°C 34% 1.0 mph SSE1.6 kmh SSE 11.4 mph18.3 kmh 29.97 in1014.9 mb 0.00 in0.0 mm 0.00 in0.0 mm 0.00 in0.0 mm
02:10 PM 84.7°F29.3°C 52.4°F11.3°C 33% 1.0 mph SW1.6 kmh SW 11.4 mph18.3 kmh 29.97 in1014.9 mb 0.00 in0.0 mm 0.00 in0.0 mm 0.00 in0.0 mm
02:12 PM 84.5°F29.2°C 53.0°F11.7°C 34% 2.0 mph SW3.2 kmh SW 11.4 mph18.3 kmh 29.97 in1014.9 mb 0.00 in0.0 mm 0.00 in0.0 mm 0.00 in0.0 mm
02:14 PM 84.5°F29.2°C 54.6°F12.6°C 36% 3.0 mph SSW4.8 kmh SSW 11.4 mph18.3 kmh 29.97 in1014.9 mb 0.00 in0.0 mm 0.00 in0.0 mm 0.00 in0.0 mm
02:16 PM 84.4°F29.1°C 52.1°F11.2°C 33% 3.0 mph NW4.8 kmh NW 11.4 mph18.3 kmh 29.97 in1014.9 mb 0.00 in0.0 mm 0.00 in0.0 mm 0.00 in0.0 mm
02:18 PM 84.4°F29.1°C 52.9°F11.6°C 34% 2.0 mph SSE3.2 kmh SSE 11.4 mph18.3 kmh 29.96 in1014.6 mb 0.00 in0.0 mm 0.00 in0.0 mm 0.00 in0.0 mm
02:20 PM 84.4°F29.1°C 52.9°F11.6°C 34% 1.0 mph SW1.6 kmh SW 11.4 mph18.3 kmh 29.97 in1014.9 mb 0.00 in0.0 mm 0.00 in0.0 mm 0.00 in0.0 mm
02:22 PM 84.5°F29.2°C 53.8°F12.1°C 35% 5.0 mph WSW8.0 kmh WSW 11.4 mph18.3 kmh 29.97 in1014.9 mb 0.00 in0.0 mm 0.00 in0.0 mm 0.00 in0.0 mm
02:24 PM 84.5°F29.2°C 54.6°F12.6°C 36% 6.0 mph W9.7 kmh W 11.4 mph18.3 kmh 29.97 in1014.9 mb 0.00 in0.0 mm 0.00 in0.0 mm 0.00 in0.0 mm
02:26 PM 84.5°F29.2°C 53.8°F12.1°C 35% 5.0 mph WSW8.0 kmh WSW 11.4 mph18.3 kmh 29.96 in1014.6 mb 0.00 in0.0 mm 0.00 in0.0 mm 0.00 in0.0 mm
02:28 PM 84.4°F29.1°C 53.7°F12.1°C 35% Calm Calm 10.3 mph16.6 kmh 29.96 in1014.6 mb 0.00 in0.0 mm 0.00 in0.0 mm 0.00 in0.0 mm
02:30 PM 84.4°F29.1°C 52.9°F11.6°C 34% 4.0 mph SE6.4 kmh SE 11.4 mph18.3 kmh 29.96 in1014.6 mb 0.00 in0.0 mm 0.00 in0.0 mm 0.00 in0.0 mm
02:32 PM 84.3°F29.1°C 53.6°F12.0°C 35% 1.0 mph SW1.6 kmh SW 11.4 mph18.3 kmh 29.96 in1014.6 mb 0.00 in0.0 mm 0.00 in0.0 mm 0.00 in0.0 mm
02:34 PM 84.2°F29.0°C 53.5°F11.9°C 35% Calm Calm 11.4 mph18.3 kmh 29.96 in1014.6 mb 0.00 in0.0 mm 0.00 in0.0 mm 0.00 in0.0 mm
02:36 PM 84.3°F29.1°C 55.2°F12.9°C 37% 1.0 mph NW1.6 kmh NW 11.4 mph18.3 kmh 29.96 in1014.6 mb 0.00 in0.0 mm 0.00 in0.0 mm 0.00 in0.0 mm
02:38 PM 84.4°F29.1°C 53.7°F12.1°C 35% 4.0 mph E6.4 kmh E 11.4 mph18.3 kmh 29.96 in1014.6 mb 0.00 in0.0 mm 0.00 in0.0 mm 0.00 in0.0 mm
02:40 PM 84.4°F29.1°C 53.7°F12.1°C 35% 1.0 mph NW1.6 kmh NW 11.4 mph18.3 kmh 29.95 in1014.2 mb 0.00 in0.0 mm 0.00 in0.0 mm 0.00 in0.0 mm
02:42 PM 84.4°F29.1°C 54.5°F12.5°C 36% 4.0 mph SSE6.4 kmh SSE 11.4 mph18.3 kmh 29.95 in1014.2 mb 0.00 in0.0 mm 0.00 in0.0 mm 0.00 in0.0 mm
02:44 PM 84.5°F29.2°C 53.8°F12.1°C 35% 4.0 mph WNW6.4 kmh WNW 11.4 mph18.3 kmh 29.95 in1014.2 mb 0.00 in0.0 mm 0.00 in0.0 mm 0.00 in0.0 mm
02:46 PM 84.5°F29.2°C 54.6°F12.6°C 36% 2.0 mph SW3.2 kmh SW 11.4 mph18.3 kmh 29.95 in1014.2 mb 0.00 in0.0 mm 0.00 in0.0 mm 0.00 in0.0 mm
02:48 PM 84.6°F29.2°C 54.7°F12.6°C 36% 1.0 mph SW1.6 kmh SW 11.4 mph18.3 kmh 29.95 in1014.2 mb 0.00 in0.0 mm 0.00 in0.0 mm 0.00 in0.0 mm
02:50 PM 84.7°F29.3°C 54.0°F12.2°C 35% 1.0 mph SW1.6 kmh SW 10.3 mph16.6 kmh 29.95 in1014.2 mb 0.00 in0.0 mm 0.00 in0.0 mm 0.00 in0.0 mm
02:52 PM 84.7°F29.3°C 52.4°F11.3°C 33% 1.0 mph NW1.6 kmh NW 10.3 mph16.6 kmh 29.95 in1014.2 mb 0.00 in0.0 mm 0.00 in0.0 mm 0.00 in0.0 mm
02:54 PM 84.7°F29.3°C 55.5°F13.1°C 37% 2.0 mph SSE3.2 kmh SSE 10.3 mph16.6 kmh 29.95 in1014.2 mb 0.00 in0.0 mm 0.00 in0.0 mm 0.00 in0.0 mm
02:56 PM 84.6°F29.2°C 53.9°F12.2°C 35% 3.0 mph N4.8 kmh N 10.3 mph16.6 kmh 29.95 in1014.2 mb 0.00 in0.0 mm 0.00 in0.0 mm 0.00 in0.0 mm
02:58 PM 84.5°F29.2°C 53.8°F12.1°C 35% 1.0 mph NE1.6 kmh NE 10.3 mph16.6 kmh 29.95 in1014.2 mb 0.00 in0.0 mm 0.00 in0.0 mm 0.00 in0.0 mm
03:00 PM 84.6°F29.2°C 55.4°F13.0°C 37% 2.0 mph ENE3.2 kmh ENE 8.0 mph12.9 kmh 29.95 in1014.2 mb 0.00 in0.0 mm 0.00 in0.0 mm 0.00 in0.0 mm
03:02 PM 84.6°F29.2°C 53.9°F12.2°C 35% 7.0 mph SE11.3 kmh SE 11.4 mph18.3 kmh 29.95 in1014.2 mb 0.00 in0.0 mm 0.00 in0.0 mm 0.00 in0.0 mm
03:04 PM 84.5°F29.2°C 53.8°F12.1°C 35% 4.0 mph SSW6.4 kmh SSW 11.4 mph18.3 kmh 29.95 in1014.2 mb 0.00 in0.0 mm 0.00 in0.0 mm 0.00 in0.0 mm
03:06 PM 84.5°F29.2°C 53.0°F11.7°C 34% 3.0 mph NW4.8 kmh NW 11.4 mph18.3 kmh 29.95 in1014.2 mb 0.00 in0.0 mm 0.00 in0.0 mm 0.00 in0.0 mm
03:08 PM 84.5°F29.2°C 53.8°F12.1°C 35% 4.0 mph WNW6.4 kmh WNW 11.4 mph18.3 kmh 29.95 in1014.2 mb 0.00 in0.0 mm 0.00 in0.0 mm 0.00 in0.0 mm
03:10 PM 84.5°F29.2°C 53.8°F12.1°C 35% 1.0 mph NNW1.6 kmh NNW 11.4 mph18.3 kmh 29.95 in1014.2 mb 0.00 in0.0 mm 0.00 in0.0 mm 0.00 in0.0 mm
03:12 PM 84.6°F29.2°C 53.9°F12.2°C 35% 2.0 mph SW3.2 kmh SW 11.4 mph18.3 kmh 29.95 in1014.2 mb 0.00 in0.0 mm 0.00 in0.0 mm 0.00 in0.0 mm
03:14 PM 84.7°F29.3°C 54.0°F12.2°C 35% 1.0 mph ESE1.6 kmh ESE 11.4 mph18.3 kmh 29.95 in1014.2 mb 0.00 in0.0 mm 0.00 in0.0 mm 0.00 in0.0 mm
03:16 PM 84.8°F29.3°C 55.6°F13.1°C 37% 4.0 mph WSW6.4 kmh WSW 11.4 mph18.3 kmh 29.95 in1014.2 mb 0.00 in0.0 mm 0.00 in0.0 mm 0.00 in0.0 mm
03:18 PM 84.9°F29.4°C 55.7°F13.2°C 37% 1.0 mph WSW1.6 kmh WSW 11.4 mph18.3 kmh 29.95 in1014.2 mb 0.00 in0.0 mm 0.00 in0.0 mm 0.00 in0.0 mm
03:20 PM 84.9°F29.4°C 54.2°F12.3°C 35% 1.0 mph SW1.6 kmh SW 11.4 mph18.3 kmh 29.95 in1014.2 mb 0.00 in0.0 mm 0.00 in0.0 mm 0.00 in0.0 mm
03:22 PM 85.0°F29.4°C 55.0°F12.8°C 36% 2.0 mph NNE3.2 kmh NNE 9.1 mph14.6 kmh 29.95 in1014.2 mb 0.00 in0.0 mm 0.00 in0.0 mm 0.00 in0.0 mm
03:24 PM 85.0°F29.4°C 54.2°F12.3°C 35% 1.0 mph E1.6 kmh E 9.1 mph14.6 kmh 29.94 in1013.9 mb 0.00 in0.0 mm 0.00 in0.0 mm 0.00 in0.0 mm
03:26 PM 85.1°F29.5°C 56.6°F13.7°C 38% 1.0 mph SE1.6 kmh SE 9.1 mph14.6 kmh 29.94 in1013.9 mb 0.00 in0.0 mm 0.00 in0.0 mm 0.00 in0.0 mm
03:28 PM 85.0°F29.4°C 55.0°F12.8°C 36% 4.0 mph ENE6.4 kmh ENE 9.1 mph14.6 kmh 29.95 in1014.2 mb 0.00 in0.0 mm 0.00 in0.0 mm 0.00 in0.0 mm
03:30 PM 84.9°F29.4°C 54.2°F12.3°C 35% 2.0 mph ESE3.2 kmh ESE 9.1 mph14.6 kmh 29.94 in1013.9 mb 0.00 in0.0 mm 0.00 in0.0 mm 0.00 in0.0 mm
03:32 PM 84.8°F29.3°C 54.1°F12.3°C 35% 1.0 mph SSE1.6 kmh SSE 6.8 mph10.9 kmh 29.94 in1013.9 mb 0.00 in0.0 mm 0.00 in0.0 mm 0.00 in0.0 mm
03:34 PM 84.6°F29.2°C 53.9°F12.2°C 35% 2.0 mph S3.2 kmh S 6.8 mph10.9 kmh 29.94 in1013.9 mb 0.00 in0.0 mm 0.00 in0.0 mm 0.00 in0.0 mm
03:36 PM 84.5°F29.2°C 55.3°F12.9°C 37% 2.0 mph SE3.2 kmh SE 6.8 mph10.9 kmh 29.94 in1013.9 mb 0.00 in0.0 mm 0.00 in0.0 mm 0.00 in0.0 mm
03:38 PM 84.4°F29.1°C 56.0°F13.3°C 38% 2.0 mph SE3.2 kmh SE 6.8 mph10.9 kmh 29.94 in1013.9 mb 0.00 in0.0 mm 0.00 in0.0 mm 0.00 in0.0 mm
03:40 PM 84.3°F29.1°C 55.2°F12.9°C 37% 1.0 mph WSW1.6 kmh WSW 8.0 mph12.9 kmh 29.94 in1013.9 mb 0.00 in0.0 mm 0.00 in0.0 mm 0.00 in0.0 mm
03:42 PM 84.2°F29.0°C 55.8°F13.2°C 38% 1.0 mph SSW1.6 kmh SSW 8.0 mph12.9 kmh 29.94 in1013.9 mb 0.00 in0.0 mm 0.00 in0.0 mm 0.00 in0.0 mm
03:44 PM 84.1°F28.9°C 56.4°F13.6°C 39% 4.0 mph NW6.4 kmh NW 8.0 mph12.9 kmh 29.94 in1013.9 mb 0.00 in0.0 mm 0.00 in0.0 mm 0.00 in0.0 mm
03:46 PM 84.0°F28.9°C 55.6°F13.1°C 38% 2.0 mph NNE3.2 kmh NNE 8.0 mph12.9 kmh 29.94 in1013.9 mb 0.00 in0.0 mm 0.00 in0.0 mm 0.00 in0.0 mm
03:48 PM 83.9°F28.8°C 55.5°F13.1°C 38% 1.0 mph ESE1.6 kmh ESE 8.0 mph12.9 kmh 29.94 in1013.9 mb 0.00 in0.0 mm 0.00 in0.0 mm 0.00 in0.0 mm
03:50 PM 83.8°F28.8°C 56.9°F13.8°C 40% 4.0 mph SW6.4 kmh SW 8.0 mph12.9 kmh 29.94 in1013.9 mb 0.00 in0.0 mm 0.00 in0.0 mm 0.00 in0.0 mm
03:52 PM 83.8°F28.8°C 56.2°F13.4°C 39% 4.0 mph E6.4 kmh E 8.0 mph12.9 kmh 29.94 in1013.9 mb 0.00 in0.0 mm 0.00 in0.0 mm 0.00 in0.0 mm
03:54 PM 83.7°F28.7°C 55.4°F13.0°C 38% 2.0 mph SSW3.2 kmh SSW 8.0 mph12.9 kmh 29.94 in1013.9 mb 0.00 in0.0 mm 0.00 in0.0 mm 0.00 in0.0 mm
03:56 PM 83.6°F28.7°C 54.5°F12.5°C 37% 2.0 mph S3.2 kmh S 11.4 mph18.3 kmh 29.94 in1013.9 mb 0.00 in0.0 mm 0.00 in0.0 mm 0.00 in0.0 mm
03:58 PM 83.6°F28.7°C 55.3°F12.9°C 38% 2.0 mph W3.2 kmh W 11.4 mph18.3 kmh 29.94 in1013.9 mb 0.00 in0.0 mm 0.00 in0.0 mm 0.00 in0.0 mm
04:00 PM 83.5°F28.6°C 55.2°F12.9°C 38% 1.0 mph E1.6 kmh E 11.4 mph18.3 kmh 29.94 in1013.9 mb 0.00 in0.0 mm 0.00 in0.0 mm 0.00 in0.0 mm
04:02 PM 83.5°F28.6°C 55.2°F12.9°C 38% 2.0 mph SE3.2 kmh SE 11.4 mph18.3 kmh 29.93 in1013.5 mb 0.00 in0.0 mm 0.00 in0.0 mm 0.00 in0.0 mm
04:04 PM 83.5°F28.6°C 54.5°F12.5°C 37% 2.0 mph NW3.2 kmh NW 11.4 mph18.3 kmh 29.93 in1013.5 mb 0.00 in0.0 mm 0.00 in0.0 mm 0.00 in0.0 mm
04:06 PM 83.4°F28.6°C 53.6°F12.0°C 36% 2.0 mph SSW3.2 kmh SSW 11.4 mph18.3 kmh 29.93 in1013.5 mb 0.00 in0.0 mm 0.00 in0.0 mm 0.00 in0.0 mm
04:08 PM 83.5°F28.6°C 54.5°F12.5°C 37% Calm Calm 11.4 mph18.3 kmh 29.93 in1013.5 mb 0.00 in0.0 mm 0.00 in0.0 mm 0.00 in0.0 mm
04:10 PM 83.5°F28.6°C 55.2°F12.9°C 38% Calm Calm 11.4 mph18.3 kmh 29.93 in1013.5 mb 0.00 in0.0 mm 0.00 in0.0 mm 0.00 in0.0 mm
04:12 PM 83.5°F28.6°C 55.9°F13.3°C 39% 1.0 mph WSW1.6 kmh WSW 11.4 mph18.3 kmh 29.93 in1013.5 mb 0.00 in0.0 mm 0.00 in0.0 mm 0.00 in0.0 mm
04:14 PM 83.5°F28.6°C 55.2°F12.9°C 38% 2.0 mph SE3.2 kmh SE 11.4 mph18.3 kmh 29.93 in1013.5 mb 0.00 in0.0 mm 0.00 in0.0 mm 0.00 in0.0 mm
04:16 PM 83.3°F28.5°C 55.0°F12.8°C 38% 3.0 mph SSW4.8 kmh SSW 8.0 mph12.9 kmh 29.93 in1013.5 mb 0.00 in0.0 mm 0.00 in0.0 mm 0.00 in0.0 mm
04:18 PM 83.2°F28.4°C 54.2°F12.3°C 37% 2.0 mph SSE3.2 kmh SSE 8.0 mph12.9 kmh 29.93 in1013.5 mb 0.00 in0.0 mm 0.00 in0.0 mm 0.00 in0.0 mm
04:20 PM 83.0°F28.3°C 54.7°F12.6°C 38% 1.0 mph E1.6 kmh E 8.0 mph12.9 kmh 29.93 in1013.5 mb 0.00 in0.0 mm 0.00 in0.0 mm 0.00 in0.0 mm
04:22 PM 82.7°F28.2°C 53.7°F12.1°C 37% 5.0 mph SSW8.0 kmh SSW 10.3 mph16.6 kmh 29.93 in1013.5 mb 0.00 in0.0 mm 0.00 in0.0 mm 0.00 in0.0 mm
04:24 PM 82.6°F28.1°C 54.4°F12.4°C 38% 1.0 mph SE1.6 kmh SE 10.3 mph16.6 kmh 29.94 in1013.9 mb 0.00 in0.0 mm 0.00 in0.0 mm 0.00 in0.0 mm
04:26 PM 82.4°F28.0°C 54.9°F12.7°C 39% 2.0 mph WSW3.2 kmh WSW 10.3 mph16.6 kmh 29.94 in1013.9 mb 0.00 in0.0 mm 0.00 in0.0 mm 0.00 in0.0 mm
04:28 PM 82.2°F27.9°C 56.1°F13.4°C 41% Calm Calm 10.3 mph16.6 kmh 29.94 in1013.9 mb 0.00 in0.0 mm 0.00 in0.0 mm 0.00 in0.0 mm
04:30 PM 82.1°F27.8°C 55.4°F13.0°C 40% 2.0 mph SW3.2 kmh SW 10.3 mph16.6 kmh 29.94 in1013.9 mb 0.00 in0.0 mm 0.00 in0.0 mm 0.00 in0.0 mm
04:32 PM 82.0°F27.8°C 55.3°F12.9°C 40% 1.0 mph SW1.6 kmh SW 10.3 mph16.6 kmh 29.94 in1013.9 mb 0.00 in0.0 mm 0.00 in0.0 mm 0.00 in0.0 mm
04:34 PM 81.9°F27.7°C 54.5°F12.5°C 39% 2.0 mph SW3.2 kmh SW 10.3 mph16.6 kmh 29.94 in1013.9 mb 0.00 in0.0 mm 0.00 in0.0 mm 0.00 in0.0 mm
04:36 PM 81.8°F27.7°C 56.4°F13.6°C 42% 1.0 mph SSW1.6 kmh SSW 10.3 mph16.6 kmh 29.93 in1013.5 mb 0.00 in0.0 mm 0.00 in0.0 mm 0.00 in0.0 mm
04:38 PM 81.8°F27.7°C 57.1°F13.9°C 43% Calm Calm 10.3 mph16.6 kmh 29.93 in1013.5 mb 0.00 in0.0 mm 0.00 in0.0 mm 0.00 in0.0 mm
04:40 PM 81.7°F27.6°C 55.0°F12.8°C 40% Calm Calm 10.3 mph16.6 kmh 29.93 in1013.5 mb 0.00 in0.0 mm 0.00 in0.0 mm 0.00 in0.0 mm
04:42 PM 81.6°F27.6°C 56.9°F13.8°C 43% Calm Calm -- 29.93 in1013.5 mb 0.00 in0.0 mm 0.00 in0.0 mm 0.00 in0.0 mm
04:44 PM 81.6°F27.6°C 55.6°F13.1°C 41% 1.0 mph WSW1.6 kmh WSW 4.6 mph7.4 kmh 29.93 in1013.5 mb 0.00 in0.0 mm 0.00 in0.0 mm 0.00 in0.0 mm
04:46 PM 81.6°F27.6°C 56.9°F13.8°C 43% Calm Calm 4.6 mph7.4 kmh 29.93 in1013.5 mb 0.00 in0.0 mm 0.00 in0.0 mm 0.00 in0.0 mm
04:48 PM 81.6°F27.6°C 56.9°F13.8°C 43% Calm Calm 1.1 mph1.8 kmh 29.94 in1013.9 mb 0.00 in0.0 mm 0.00 in0.0 mm 0.00 in0.0 mm
04:50 PM 81.5°F27.5°C 56.2°F13.4°C 42% 1.0 mph SW1.6 kmh SW 8.0 mph12.9 kmh 29.94 in1013.9 mb 0.00 in0.0 mm 0.00 in0.0 mm 0.00 in0.0 mm
04:52 PM 81.4°F27.4°C 57.4°F14.1°C 44% 1.0 mph NW1.6 kmh NW 8.0 mph12.9 kmh 29.94 in1013.9 mb 0.00 in0.0 mm 0.00 in0.0 mm 0.00 in0.0 mm
04:54 PM 81.2°F27.3°C 57.8°F14.3°C 45% 1.0 mph ESE1.6 kmh ESE 8.0 mph12.9 kmh 29.94 in1013.9 mb 0.00 in0.0 mm 0.00 in0.0 mm 0.00 in0.0 mm
04:56 PM 81.2°F27.3°C 57.8°F14.3°C 45% Calm Calm 8.0 mph12.9 kmh 29.94 in1013.9 mb 0.00 in0.0 mm 0.00 in0.0 mm 0.00 in0.0 mm
04:58 PM 81.0°F27.2°C 58.8°F14.9°C 47% 1.0 mph SSW1.6 kmh SSW 1.1 mph1.8 kmh 29.94 in1013.9 mb 0.00 in0.0 mm 0.00 in0.0 mm 0.00 in0.0 mm
05:00 PM 80.8°F27.1°C 58.7°F14.8°C 47% Calm Calm 1.1 mph1.8 kmh 29.94 in1013.9 mb 0.00 in0.0 mm 0.00 in0.0 mm 0.00 in0.0 mm
05:02 PM 80.5°F26.9°C 59.0°F15.0°C 48% Calm Calm 1.1 mph1.8 kmh 29.94 in1013.9 mb 0.00 in0.0 mm 0.00 in0.0 mm 0.00 in0.0 mm
05:04 PM 80.2°F26.8°C 59.3°F15.2°C 49% Calm Calm 1.1 mph1.8 kmh 29.94 in1013.9 mb 0.00 in0.0 mm 0.00 in0.0 mm 0.00 in0.0 mm
05:06 PM 79.9°F26.6°C 57.8°F14.3°C 47% 1.0 mph SSW1.6 kmh SSW 1.1 mph1.8 kmh 29.94 in1013.9 mb 0.00 in0.0 mm 0.00 in0.0 mm 0.00 in0.0 mm
05:08 PM 79.7°F26.5°C 57.1°F13.9°C 46% 1.0 mph W1.6 kmh W 2.3 mph3.7 kmh 29.94 in1013.9 mb 0.00 in0.0 mm 0.00 in0.0 mm 0.00 in0.0 mm
05:10 PM 79.5°F26.4°C 58.1°F14.5°C 48% 1.0 mph SE1.6 kmh SE 4.6 mph7.4 kmh 29.94 in1013.9 mb 0.00 in0.0 mm 0.00 in0.0 mm 0.00 in0.0 mm
05:12 PM 79.4°F26.3°C 58.0°F14.4°C 48% Calm Calm 4.6 mph7.4 kmh 29.94 in1013.9 mb 0.00 in0.0 mm 0.00 in0.0 mm 0.00 in0.0 mm
05:14 PM 79.4°F26.3°C 58.0°F14.4°C 48% Calm Calm 4.6 mph7.4 kmh 29.94 in1013.9 mb 0.00 in0.0 mm 0.00 in0.0 mm 0.00 in0.0 mm
05:16 PM 79.4°F26.3°C 57.4°F14.1°C 47% Calm Calm 1.1 mph1.8 kmh 29.94 in1013.9 mb 0.00 in0.0 mm 0.00 in0.0 mm 0.00 in0.0 mm
05:18 PM 79.3°F26.3°C 57.9°F14.4°C 48% Calm Calm 1.1 mph1.8 kmh 29.94 in1013.9 mb 0.00 in0.0 mm 0.00 in0.0 mm 0.00 in0.0 mm
05:20 PM 79.4°F26.3°C 59.1°F15.1°C 50% Calm Calm -- 29.94 in1013.9 mb 0.00 in0.0 mm 0.00 in0.0 mm 0.00 in0.0 mm
05:22 PM 79.3°F26.3°C 58.5°F14.7°C 49% 1.0 mph S1.6 kmh S 3.4 mph5.5 kmh 29.94 in1013.9 mb 0.00 in0.0 mm 0.00 in0.0 mm 0.00 in0.0 mm
05:24 PM 79.2°F26.2°C 58.9°F14.9°C 50% Calm Calm 3.4 mph5.5 kmh 29.94 in1013.9 mb 0.00 in0.0 mm 0.00 in0.0 mm 0.00 in0.0 mm
05:26 PM 79.1°F26.2°C 58.3°F14.6°C 49% Calm Calm 1.1 mph1.8 kmh 29.94 in1013.9 mb 0.00 in0.0 mm 0.00 in0.0 mm 0.00 in0.0 mm
05:28 PM 79.0°F26.1°C 59.3°F15.2°C 51% Calm Calm -- 29.94 in1013.9 mb 0.00 in0.0 mm 0.00 in0.0 mm 0.00 in0.0 mm
05:30 PM 78.9°F26.1°C 59.2°F15.1°C 51% Calm Calm 1.1 mph1.8 kmh 29.94 in1013.9 mb 0.00 in0.0 mm 0.00 in0.0 mm 0.00 in0.0 mm
05:32 PM 78.8°F26.0°C 58.6°F14.8°C 50% Calm Calm -- 29.94 in1013.9 mb 0.00 in0.0 mm 0.00 in0.0 mm 0.00 in0.0 mm
05:34 PM 78.7°F25.9°C 58.5°F14.7°C 50% Calm Calm 1.1 mph1.8 kmh 29.94 in1013.9 mb 0.00 in0.0 mm 0.00 in0.0 mm 0.00 in0.0 mm
05:36 PM 78.4°F25.8°C 58.8°F14.9°C 51% Calm Calm -- 29.94 in1013.9 mb 0.00 in0.0 mm 0.00 in0.0 mm 0.00 in0.0 mm
05:38 PM 78.2°F25.7°C 58.6°F14.8°C 51% Calm Calm 1.1 mph1.8 kmh 29.94 in1013.9 mb 0.00 in0.0 mm 0.00 in0.0 mm 0.00 in0.0 mm
05:40 PM 78.0°F25.6°C 58.4°F14.7°C 51% Calm Calm -- 29.94 in1013.9 mb 0.00 in0.0 mm 0.00 in0.0 mm 0.00 in0.0 mm
05:42 PM 77.9°F25.5°C 58.8°F14.9°C 52% Calm Calm -- 29.94 in1013.9 mb 0.00 in0.0 mm 0.00 in0.0 mm 0.00 in0.0 mm
05:44 PM 77.7°F25.4°C 59.2°F15.1°C 53% Calm Calm -- 29.95 in1014.2 mb 0.00 in0.0 mm 0.00 in0.0 mm 0.00 in0.0 mm
05:46 PM 77.6°F25.3°C 58.6°F14.8°C 52% Calm Calm -- 29.95 in1014.2 mb 0.00 in0.0 mm 0.00 in0.0 mm 0.00 in0.0 mm
05:48 PM 77.4°F25.2°C 58.4°F14.7°C 52% Calm Calm -- 29.95 in1014.2 mb 0.00 in0.0 mm 0.00 in0.0 mm 0.00 in0.0 mm
05:50 PM 77.2°F25.1°C 58.2°F14.6°C 52% Calm Calm 1.1 mph1.8 kmh 29.95 in1014.2 mb 0.00 in0.0 mm 0.00 in0.0 mm 0.00 in0.0 mm
05:52 PM 77.1°F25.1°C 58.1°F14.5°C 52% Calm Calm -- 29.95 in1014.2 mb 0.00 in0.0 mm 0.00 in0.0 mm 0.00 in0.0 mm
05:54 PM 76.9°F24.9°C 58.4°F14.7°C 53% Calm Calm -- 29.95 in1014.2 mb 0.00 in0.0 mm 0.00 in0.0 mm 0.00 in0.0 mm
05:56 PM 76.7°F24.8°C 58.3°F14.6°C 53% Calm Calm 1.1 mph1.8 kmh 29.95 in1014.2 mb 0.00 in0.0 mm 0.00 in0.0 mm 0.00 in0.0 mm
05:58 PM 76.5°F24.7°C 58.1°F14.5°C 53% Calm Calm 1.1 mph1.8 kmh 29.95 in1014.2 mb 0.00 in0.0 mm 0.00 in0.0 mm 0.00 in0.0 mm
06:00 PM 76.4°F24.7°C 58.5°F14.7°C 54% Calm Calm -- 29.95 in1014.2 mb 0.00 in0.0 mm 0.00 in0.0 mm 0.00 in0.0 mm
06:02 PM 76.2°F24.6°C 58.3°F14.6°C 54% Calm Calm -- 29.94 in1013.9 mb 0.00 in0.0 mm 0.00 in0.0 mm 0.00 in0.0 mm
06:04 PM 76.0°F24.4°C 58.1°F14.5°C 54% Calm Calm -- 29.95 in1014.2 mb 0.00 in0.0 mm 0.00 in0.0 mm 0.00 in0.0 mm
06:06 PM 75.8°F24.3°C 57.9°F14.4°C 54% Calm Calm -- 29.94 in1013.9 mb 0.00 in0.0 mm 0.00 in0.0 mm 0.00 in0.0 mm
06:08 PM 75.6°F24.2°C 57.8°F14.3°C 54% Calm Calm -- 29.94 in1013.9 mb 0.00 in0.0 mm 0.00 in0.0 mm 0.00 in0.0 mm
06:10 PM 75.4°F24.1°C 57.6°F14.2°C 54% Calm Calm 1.1 mph1.8 kmh 29.94 in1013.9 mb 0.00 in0.0 mm 0.00 in0.0 mm 0.00 in0.0 mm
06:12 PM 75.3°F24.1°C 58.0°F14.4°C 55% Calm Calm 1.1 mph1.8 kmh 29.94 in1013.9 mb 0.00 in0.0 mm 0.00 in0.0 mm 0.00 in0.0 mm
06:14 PM 75.1°F23.9°C 57.3°F14.1°C 54% Calm Calm 1.1 mph1.8 kmh 29.95 in1014.2 mb 0.00 in0.0 mm 0.00 in0.0 mm 0.00 in0.0 mm
06:16 PM 75.0°F23.9°C 57.2°F14.0°C 54% Calm Calm -- 29.95 in1014.2 mb 0.00 in0.0 mm 0.00 in0.0 mm 0.00 in0.0 mm
06:18 PM 74.8°F23.8°C 57.5°F14.2°C 55% Calm Calm -- 29.95 in1014.2 mb 0.00 in0.0 mm 0.00 in0.0 mm 0.00 in0.0 mm
06:20 PM 74.7°F23.7°C 57.4°F14.1°C 55% Calm Calm -- 29.95 in1014.2 mb 0.00 in0.0 mm 0.00 in0.0 mm 0.00 in0.0 mm
06:22 PM 74.6°F23.7°C 57.3°F14.1°C 55% Calm Calm -- 29.95 in1014.2 mb 0.00 in0.0 mm 0.00 in0.0 mm 0.00 in0.0 mm
06:24 PM 74.5°F23.6°C 57.3°F14.1°C 55% Calm Calm -- 29.95 in1014.2 mb 0.00 in0.0 mm 0.00 in0.0 mm 0.00 in0.0 mm
06:26 PM 74.4°F23.6°C 56.7°F13.7°C 54% Calm Calm -- 29.95 in1014.2 mb 0.00 in0.0 mm 0.00 in0.0 mm 0.00 in0.0 mm
06:28 PM 74.3°F23.5°C 57.1°F13.9°C 55% Calm Calm -- 29.95 in1014.2 mb 0.00 in0.0 mm 0.00 in0.0 mm 0.00 in0.0 mm
06:30 PM 74.2°F23.4°C 57.0°F13.9°C 55% Calm Calm -- 29.95 in1014.2 mb 0.00 in0.0 mm 0.00 in0.0 mm 0.00 in0.0 mm
06:32 PM 74.2°F23.4°C 57.0°F13.9°C 55% Calm Calm -- 29.95 in1014.2 mb 0.00 in0.0 mm 0.00 in0.0 mm 0.00 in0.0 mm
06:34 PM 74.1°F23.4°C 56.9°F13.8°C 55% Calm Calm -- 29.95 in1014.2 mb 0.00 in0.0 mm 0.00 in0.0 mm 0.00 in0.0 mm
06:36 PM 74.0°F23.3°C 56.8°F13.8°C 55% Calm Calm -- 29.95 in1014.2 mb 0.00 in0.0 mm 0.00 in0.0 mm 0.00 in0.0 mm
06:38 PM 73.9°F23.3°C 56.7°F13.7°C 55% Calm Calm -- 29.95 in1014.2 mb 0.00 in0.0 mm 0.00 in0.0 mm 0.00 in0.0 mm
06:40 PM 73.8°F23.2°C 56.6°F13.7°C 55% Calm Calm -- 29.95 in1014.2 mb 0.00 in0.0 mm 0.00 in0.0 mm 0.00 in0.0 mm
06:42 PM 73.6°F23.1°C 56.4°F13.6°C 55% Calm Calm -- 29.95 in1014.2 mb 0.00 in0.0 mm 0.00 in0.0 mm 0.00 in0.0 mm
06:44 PM 73.5°F23.1°C 56.3°F13.5°C 55% Calm Calm -- 29.95 in1014.2 mb 0.00 in0.0 mm 0.00 in0.0 mm 0.00 in0.0 mm
06:46 PM 73.4°F23.0°C 56.7°F13.7°C 56% Calm Calm -- 29.95 in1014.2 mb 0.00 in0.0 mm 0.00 in0.0 mm 0.00 in0.0 mm
06:48 PM 73.3°F22.9°C 56.6°F13.7°C 56% Calm Calm -- 29.96 in1014.6 mb 0.00 in0.0 mm 0.00 in0.0 mm 0.00 in0.0 mm
06:50 PM 73.1°F22.8°C 56.5°F13.6°C 56% Calm Calm -- 29.96 in1014.6 mb 0.00 in0.0 mm 0.00 in0.0 mm 0.00 in0.0 mm
06:52 PM 73.0°F22.8°C 56.4°F13.6°C 56% Calm Calm -- 29.96 in1014.6 mb 0.00 in0.0 mm 0.00 in0.0 mm 0.00 in0.0 mm
06:54 PM 73.0°F22.8°C 56.4°F13.6°C 56% Calm Calm -- 29.96 in1014.6 mb 0.00 in0.0 mm 0.00 in0.0 mm 0.00 in0.0 mm
06:56 PM 72.9°F22.7°C 56.3°F13.5°C 56% Calm Calm -- 29.96 in1014.6 mb 0.00 in0.0 mm 0.00 in0.0 mm 0.00 in0.0 mm
06:58 PM 72.8°F22.7°C 56.7°F13.7°C 57% Calm Calm -- 29.96 in1014.6 mb 0.00 in0.0 mm 0.00 in0.0 mm 0.00 in0.0 mm
07:00 PM 72.8°F22.7°C 56.7°F13.7°C 57% Calm Calm -- 29.96 in1014.6 mb 0.00 in0.0 mm 0.00 in0.0 mm 0.00 in0.0 mm
07:02 PM 72.8°F22.7°C 56.7°F13.7°C 57% Calm Calm -- 29.96 in1014.6 mb 0.00 in0.0 mm 0.00 in0.0 mm 0.00 in0.0 mm
07:04 PM 72.8°F22.7°C 56.7°F13.7°C 57% Calm Calm -- 29.96 in1014.6 mb 0.00 in0.0 mm 0.00 in0.0 mm 0.00 in0.0 mm
07:06 PM 72.9°F22.7°C 57.2°F14.0°C 58% Calm Calm -- 29.96 in1014.6 mb 0.00 in0.0 mm 0.00 in0.0 mm 0.00 in0.0 mm
07:08 PM 72.9°F22.7°C 56.8°F13.8°C 57% Calm Calm -- 29.96 in1014.6 mb 0.00 in0.0 mm 0.00 in0.0 mm 0.00 in0.0 mm
07:10 PM 73.0°F22.8°C 57.3°F14.1°C 58% Calm Calm -- 29.97 in1014.9 mb 0.00 in0.0 mm 0.00 in0.0 mm 0.00 in0.0 mm
07:12 PM 73.1°F22.8°C 56.9°F13.8°C 57% Calm Calm 1.1 mph1.8 kmh 29.96 in1014.6 mb 0.00 in0.0 mm 0.00 in0.0 mm 0.00 in0.0 mm
07:14 PM 73.1°F22.8°C 56.9°F13.8°C 57% Calm Calm -- 29.97 in1014.9 mb 0.00 in0.0 mm 0.00 in0.0 mm 0.00 in0.0 mm
07:16 PM 73.1°F22.8°C 57.4°F14.1°C 58% Calm Calm -- 29.97 in1014.9 mb 0.00 in0.0 mm 0.00 in0.0 mm 0.00 in0.0 mm
07:18 PM 73.1°F22.8°C 57.4°F14.1°C 58% Calm Calm -- 29.97 in1014.9 mb 0.00 in0.0 mm 0.00 in0.0 mm 0.00 in0.0 mm
07:20 PM 73.2°F22.9°C 57.5°F14.2°C 58% Calm Calm 1.1 mph1.8 kmh 29.97 in1014.9 mb 0.00 in0.0 mm 0.00 in0.0 mm 0.00 in0.0 mm
07:22 PM 73.2°F22.9°C 57.0°F13.9°C 57% Calm Calm -- 29.97 in1014.9 mb 0.00 in0.0 mm 0.00 in0.0 mm 0.00 in0.0 mm
07:24 PM 73.3°F22.9°C 57.6°F14.2°C 58% Calm Calm -- 29.97 in1014.9 mb 0.00 in0.0 mm 0.00 in0.0 mm 0.00 in0.0 mm
07:26 PM 73.4°F23.0°C 57.7°F14.3°C 58% Calm Calm -- 29.97 in1014.9 mb 0.00 in0.0 mm 0.00 in0.0 mm 0.00 in0.0 mm
07:28 PM 73.3°F22.9°C 57.6°F14.2°C 58% Calm Calm -- 29.97 in1014.9 mb 0.00 in0.0 mm 0.00 in0.0 mm 0.00 in0.0 mm
07:30 PM 73.3°F22.9°C 57.6°F14.2°C 58% Calm Calm -- 29.97 in1014.9 mb 0.00 in0.0 mm 0.00 in0.0 mm 0.00 in0.0 mm
07:32 PM 73.3°F22.9°C 57.6°F14.2°C 58% Calm Calm -- 29.97 in1014.9 mb 0.00 in0.0 mm 0.00 in0.0 mm 0.00 in0.0 mm
07:34 PM 73.2°F22.9°C 57.5°F14.2°C 58% Calm Calm -- 29.97 in1014.9 mb 0.00 in0.0 mm 0.00 in0.0 mm 0.00 in0.0 mm
07:36 PM 73.1°F22.8°C 57.9°F14.4°C 59% Calm Calm -- 29.97 in1014.9 mb 0.00 in0.0 mm 0.00 in0.0 mm 0.00 in0.0 mm
07:38 PM 73.1°F22.8°C 57.9°F14.4°C 59% Calm Calm -- 29.97 in1014.9 mb 0.00 in0.0 mm 0.00 in0.0 mm 0.00 in0.0 mm
07:40 PM 73.0°F22.8°C 58.3°F14.6°C 60% Calm Calm -- 29.97 in1014.9 mb 0.00 in0.0 mm 0.00 in0.0 mm 0.00 in0.0 mm
07:42 PM 72.9°F22.7°C 58.2°F14.6°C 60% Calm Calm -- 29.97 in1014.9 mb 0.00 in0.0 mm 0.00 in0.0 mm 0.00 in0.0 mm
07:44 PM 72.7°F22.6°C 58.0°F14.4°C 60% Calm Calm -- 29.97 in1014.9 mb 0.00 in0.0 mm 0.00 in0.0 mm 0.00 in0.0 mm
07:46 PM 72.6°F22.6°C 58.4°F14.7°C 61% Calm Calm -- 29.97 in1014.9 mb 0.00 in0.0 mm 0.00 in0.0 mm 0.00 in0.0 mm
07:48 PM 72.6°F22.6°C 58.8°F14.9°C 62% Calm Calm -- 29.97 in1014.9 mb 0.00 in0.0 mm 0.00 in0.0 mm 0.00 in0.0 mm
07:50 PM 72.4°F22.4°C 58.6°F14.8°C 62% Calm Calm -- 29.97 in1014.9 mb 0.00 in0.0 mm 0.00 in0.0 mm 0.00 in0.0 mm
07:52 PM 72.3°F22.4°C 59.0°F15.0°C 63% Calm Calm -- 29.97 in1014.9 mb 0.00 in0.0 mm 0.00 in0.0 mm 0.00 in0.0 mm
07:54 PM 72.2°F22.3°C 58.9°F14.9°C 63% Calm Calm -- 29.96 in1014.6 mb 0.00 in0.0 mm 0.00 in0.0 mm 0.00 in0.0 mm
07:56 PM 72.1°F22.3°C 58.8°F14.9°C 63% Calm Calm -- 29.96 in1014.6 mb 0.00 in0.0 mm 0.00 in0.0 mm 0.00 in0.0 mm
07:58 PM 72.1°F22.3°C 58.8°F14.9°C 63% Calm Calm -- 29.96 in1014.6 mb 0.00 in0.0 mm 0.00 in0.0 mm 0.00 in0.0 mm
08:00 PM 72.0°F22.2°C 59.1°F15.1°C 64% Calm Calm -- 29.96 in1014.6 mb 0.00 in0.0 mm 0.00 in0.0 mm 0.00 in0.0 mm
08:02 PM 71.9°F22.2°C 59.0°F15.0°C 64% Calm Calm 1.1 mph1.8 kmh 29.96 in1014.6 mb 0.00 in0.0 mm 0.00 in0.0 mm 0.00 in0.0 mm
08:04 PM 71.9°F22.2°C 59.5°F15.3°C 65% Calm Calm -- 29.95 in1014.2 mb 0.00 in0.0 mm 0.00 in0.0 mm 0.00 in0.0 mm
08:06 PM 71.8°F22.1°C 59.8°F15.4°C 66% Calm Calm -- 29.95 in1014.2 mb 0.00 in0.0 mm 0.00 in0.0 mm 0.00 in0.0 mm
08:08 PM 71.7°F22.1°C 59.7°F15.4°C 66% Calm Calm -- 29.95 in1014.2 mb 0.00 in0.0 mm 0.00 in0.0 mm 0.00 in0.0 mm
08:10 PM 71.5°F21.9°C 60.0°F15.6°C 67% Calm Calm -- 29.95 in1014.2 mb 0.00 in0.0 mm 0.00 in0.0 mm 0.00 in0.0 mm
08:12 PM 71.5°F21.9°C 60.0°F15.6°C 67% Calm Calm -- 29.95 in1014.2 mb 0.00 in0.0 mm 0.00 in0.0 mm 0.00 in0.0 mm
08:14 PM 71.2°F21.8°C 60.1°F15.6°C 68% Calm Calm -- 29.95 in1014.2 mb 0.00 in0.0 mm 0.00 in0.0 mm 0.00 in0.0 mm
08:16 PM 71.1°F21.7°C 60.0°F15.6°C 68% Calm Calm -- 29.95 in1014.2 mb 0.00 in0.0 mm 0.00 in0.0 mm 0.00 in0.0 mm
08:18 PM 70.9°F21.6°C 60.2°F15.7°C 69% Calm Calm -- 29.94 in1013.9 mb 0.00 in0.0 mm 0.00 in0.0 mm 0.00 in0.0 mm
08:20 PM 70.8°F21.6°C 60.1°F15.6°C 69% Calm Calm -- 29.94 in1013.9 mb 0.00 in0.0 mm 0.00 in0.0 mm 0.00 in0.0 mm
08:22 PM 70.7°F21.5°C 60.0°F15.6°C 69% Calm Calm -- 29.94 in1013.9 mb 0.00 in0.0 mm 0.00 in0.0 mm 0.00 in0.0 mm
08:24 PM 70.4°F21.3°C 60.1°F15.6°C 70% Calm Calm -- 29.94 in1013.9 mb 0.00 in0.0 mm 0.00 in0.0 mm 0.00 in0.0 mm
08:26 PM 70.3°F21.3°C 60.0°F15.6°C 70% Calm Calm -- 29.94 in1013.9 mb 0.00 in0.0 mm 0.00 in0.0 mm 0.00 in0.0 mm
08:28 PM 70.1°F21.2°C 60.2°F15.7°C 71% Calm Calm -- 29.94 in1013.9 mb 0.00 in0.0 mm 0.00 in0.0 mm 0.00 in0.0 mm
08:30 PM 69.9°F21.1°C 60.1°F15.6°C 71% Calm Calm -- 29.94 in1013.9 mb 0.00 in0.0 mm 0.00 in0.0 mm 0.00 in0.0 mm
08:32 PM 69.8°F21.0°C 60.4°F15.8°C 72% Calm Calm -- 29.94 in1013.9 mb 0.00 in0.0 mm 0.00 in0.0 mm 0.00 in0.0 mm
08:34 PM 69.6°F20.9°C 60.2°F15.7°C 72% Calm Calm -- 29.94 in1013.9 mb 0.00 in0.0 mm 0.00 in0.0 mm 0.00 in0.0 mm
08:36 PM 69.5°F20.8°C 60.1°F15.6°C 72% Calm Calm -- 29.94 in1013.9 mb 0.00 in0.0 mm 0.00 in0.0 mm 0.00 in0.0 mm
08:38 PM 69.4°F20.8°C 60.0°F15.6°C 72% Calm Calm -- 29.94 in1013.9 mb 0.00 in0.0 mm 0.00 in0.0 mm 0.00 in0.0 mm
08:40 PM 69.3°F20.7°C 60.3°F15.7°C 73% Calm Calm -- 29.94 in1013.9 mb 0.00 in0.0 mm 0.00 in0.0 mm 0.00 in0.0 mm
08:42 PM 69.2°F20.7°C 60.5°F15.8°C 74% Calm Calm -- 29.94 in1013.9 mb 0.00 in0.0 mm 0.00 in0.0 mm 0.00 in0.0 mm
08:44 PM 69.0°F20.6°C 60.4°F15.8°C 74% Calm Calm -- 29.94 in1013.9 mb 0.00 in0.0 mm 0.00 in0.0 mm 0.00 in0.0 mm
08:46 PM 68.9°F20.5°C 60.3°F15.7°C 74% Calm Calm -- 29.93 in1013.5 mb 0.00 in0.0 mm 0.00 in0.0 mm 0.00 in0.0 mm
08:48 PM 68.8°F20.4°C 60.2°F15.7°C 74% Calm Calm -- 29.93 in1013.5 mb 0.00 in0.0 mm 0.00 in0.0 mm 0.00 in0.0 mm
08:50 PM 68.7°F20.4°C 60.1°F15.6°C 74% Calm Calm -- 29.93 in1013.5 mb 0.00 in0.0 mm 0.00 in0.0 mm 0.00 in0.0 mm
08:52 PM 68.6°F20.3°C 60.0°F15.6°C 74% Calm Calm -- 29.93 in1013.5 mb 0.00 in0.0 mm 0.00 in0.0 mm 0.00 in0.0 mm
08:54 PM 68.4°F20.2°C 59.8°F15.4°C 74% Calm Calm -- 29.93 in1013.5 mb 0.00 in0.0 mm 0.00 in0.0 mm 0.00 in0.0 mm
08:56 PM 68.4°F20.2°C 59.4°F15.2°C 73% Calm Calm -- 29.93 in1013.5 mb 0.00 in0.0 mm 0.00 in0.0 mm 0.00 in0.0 mm
08:58 PM 68.4°F20.2°C 59.4°F15.2°C 73% Calm Calm -- 29.92 in1013.2 mb 0.00 in0.0 mm 0.00 in0.0 mm 0.00 in0.0 mm
09:00 PM 68.3°F20.2°C 59.7°F15.4°C 74% Calm Calm -- 29.92 in1013.2 mb 0.00 in0.0 mm 0.00 in0.0 mm 0.00 in0.0 mm
09:02 PM 68.3°F20.2°C 59.7°F15.4°C 74% Calm Calm -- 29.92 in1013.2 mb 0.00 in0.0 mm 0.00 in0.0 mm 0.00 in0.0 mm
09:04 PM 68.2°F20.1°C 60.0°F15.6°C 75% Calm Calm -- 29.92 in1013.2 mb 0.00 in0.0 mm 0.00 in0.0 mm 0.00 in0.0 mm
09:06 PM 68.2°F20.1°C 60.0°F15.6°C 75% Calm Calm -- 29.93 in1013.5 mb 0.00 in0.0 mm 0.00 in0.0 mm 0.00 in0.0 mm
09:08 PM 68.0°F20.0°C 59.8°F15.4°C 75% Calm Calm -- 29.93 in1013.5 mb 0.00 in0.0 mm 0.00 in0.0 mm 0.00 in0.0 mm
09:10 PM 67.9°F19.9°C 59.7°F15.4°C 75% Calm Calm -- 29.92 in1013.2 mb 0.00 in0.0 mm 0.00 in0.0 mm 0.00 in0.0 mm
09:12 PM 67.9°F19.9°C 59.7°F15.4°C 75% Calm Calm -- 29.92 in1013.2 mb 0.00 in0.0 mm 0.00 in0.0 mm 0.00 in0.0 mm
09:14 PM 67.8°F19.9°C 59.6°F15.3°C 75% Calm Calm -- 29.92 in1013.2 mb 0.00 in0.0 mm 0.00 in0.0 mm 0.00 in0.0 mm
09:16 PM 67.7°F19.8°C 59.5°F15.3°C 75% Calm Calm -- 29.92 in1013.2 mb 0.00 in0.0 mm 0.00 in0.0 mm 0.00 in0.0 mm
09:18 PM 67.6°F19.8°C 59.8°F15.4°C 76% Calm Calm -- 29.92 in1013.2 mb 0.00 in0.0 mm 0.00 in0.0 mm 0.00 in0.0 mm
09:20 PM 67.6°F19.8°C 59.4°F15.2°C 75% Calm Calm -- 29.93 in1013.5 mb 0.00 in0.0 mm 0.00 in0.0 mm 0.00 in0.0 mm
09:22 PM 67.5°F19.7°C 59.7°F15.4°C 76% Calm Calm -- 29.93 in1013.5 mb 0.00 in0.0 mm 0.00 in0.0 mm 0.00 in0.0 mm
09:24 PM 67.5°F19.7°C 59.7°F15.4°C 76% Calm Calm -- 29.93 in1013.5 mb 0.00 in0.0 mm 0.00 in0.0 mm 0.00 in0.0 mm
09:26 PM 67.4°F19.7°C 59.6°F15.3°C 76% Calm Calm -- 29.93 in1013.5 mb 0.00 in0.0 mm 0.00 in0.0 mm 0.00 in0.0 mm
09:28 PM 67.4°F19.7°C 59.6°F15.3°C 76% Calm Calm -- 29.93 in1013.5 mb 0.00 in0.0 mm 0.00 in0.0 mm 0.00 in0.0 mm
09:30 PM 67.3°F19.6°C 59.1°F15.1°C 75% Calm Calm 2.3 mph3.7 kmh 29.93 in1013.5 mb 0.00 in0.0 mm 0.00 in0.0 mm 0.00 in0.0 mm
09:32 PM 67.3°F19.6°C 59.1°F15.1°C 75% Calm Calm -- 29.93 in1013.5 mb 0.00 in0.0 mm 0.00 in0.0 mm 0.00 in0.0 mm
09:34 PM 67.3°F19.6°C 59.1°F15.1°C 75% Calm Calm -- 29.93 in1013.5 mb 0.00 in0.0 mm 0.00 in0.0 mm 0.00 in0.0 mm
09:36 PM 67.2°F19.6°C 59.4°F15.2°C 76% Calm Calm -- 29.93 in1013.5 mb 0.00 in0.0 mm 0.00 in0.0 mm 0.00 in0.0 mm
09:38 PM 67.3°F19.6°C 59.5°F15.3°C 76% Calm Calm -- 29.93 in1013.5 mb 0.00 in0.0 mm 0.00 in0.0 mm 0.00 in0.0 mm
09:40 PM 67.2°F19.6°C 59.0°F15.0°C 75% Calm Calm 1.1 mph1.8 kmh 29.93 in1013.5 mb 0.00 in0.0 mm 0.00 in0.0 mm 0.00 in0.0 mm
09:42 PM 67.3°F19.6°C 59.1°F15.1°C 75% Calm Calm 1.1 mph1.8 kmh 29.93 in1013.5 mb 0.00 in0.0 mm 0.00 in0.0 mm 0.00 in0.0 mm
09:44 PM 67.4°F19.7°C 59.2°F15.1°C 75% Calm Calm 1.1 mph1.8 kmh 29.93 in1013.5 mb 0.00 in0.0 mm 0.00 in0.0 mm 0.00 in0.0 mm
09:46 PM 67.5°F19.7°C 58.9°F14.9°C 74% Calm Calm -- 29.93 in1013.5 mb 0.00 in0.0 mm 0.00 in0.0 mm 0.00 in0.0 mm
09:48 PM 67.6°F19.8°C 59.0°F15.0°C 74% Calm Calm -- 29.93 in1013.5 mb 0.00 in0.0 mm 0.00 in0.0 mm 0.00 in0.0 mm
09:50 PM 67.6°F19.8°C 58.6°F14.8°C 73% Calm Calm 1.1 mph1.8 kmh 29.94 in1013.9 mb 0.00 in0.0 mm 0.00 in0.0 mm 0.00 in0.0 mm
09:52 PM 67.7°F19.8°C 59.1°F15.1°C 74% Calm Calm 1.1 mph1.8 kmh 29.94 in1013.9 mb 0.00 in0.0 mm 0.00 in0.0 mm 0.00 in0.0 mm
09:54 PM 67.7°F19.8°C 59.1°F15.1°C 74% Calm Calm -- 29.94 in1013.9 mb 0.00 in0.0 mm 0.00 in0.0 mm 0.00 in0.0 mm
09:56 PM 67.8°F19.9°C 58.8°F14.9°C 73% Calm Calm -- 29.94 in1013.9 mb 0.00 in0.0 mm 0.00 in0.0 mm 0.00 in0.0 mm
10:00 PM 67.9°F19.9°C 59.3°F15.2°C 74% Calm Calm -- 29.94 in1013.9 mb 0.00 in0.0 mm 0.00 in0.0 mm 0.00 in0.0 mm
10:02 PM 67.9°F19.9°C 59.3°F15.2°C 74% Calm Calm -- 29.94 in1013.9 mb 0.00 in0.0 mm 0.00 in0.0 mm 0.00 in0.0 mm
10:04 PM 68.0°F20.0°C 59.8°F15.4°C 75% Calm Calm -- 29.94 in1013.9 mb 0.00 in0.0 mm 0.00 in0.0 mm 0.00 in0.0 mm
10:06 PM 68.0°F20.0°C 60.1°F15.6°C 76% Calm Calm -- 29.94 in1013.9 mb 0.00 in0.0 mm 0.00 in0.0 mm 0.00 in0.0 mm
10:08 PM 68.0°F20.0°C 59.8°F15.4°C 75% Calm Calm -- 29.94 in1013.9 mb 0.00 in0.0 mm 0.00 in0.0 mm 0.00 in0.0 mm
10:10 PM 68.1°F20.1°C 59.1°F15.1°C 73% Calm Calm -- 29.94 in1013.9 mb 0.00 in0.0 mm 0.00 in0.0 mm 0.00 in0.0 mm
10:12 PM 68.1°F20.1°C 59.1°F15.1°C 73% Calm Calm -- 29.94 in1013.9 mb 0.00 in0.0 mm 0.00 in0.0 mm 0.00 in0.0 mm
10:14 PM 68.2°F20.1°C 59.6°F15.3°C 74% Calm Calm 1.1 mph1.8 kmh 29.94 in1013.9 mb 0.00 in0.0 mm 0.00 in0.0 mm 0.00 in0.0 mm
10:16 PM 68.2°F20.1°C 59.2°F15.1°C 73% Calm Calm 1.1 mph1.8 kmh 29.94 in1013.9 mb 0.00 in0.0 mm 0.00 in0.0 mm 0.00 in0.0 mm
10:18 PM 68.3°F20.2°C 59.3°F15.2°C 73% Calm Calm -- 29.94 in1013.9 mb 0.00 in0.0 mm 0.00 in0.0 mm 0.00 in0.0 mm
10:20 PM 68.4°F20.2°C 59.4°F15.2°C 73% Calm Calm -- 29.94 in1013.9 mb 0.00 in0.0 mm 0.00 in0.0 mm 0.00 in0.0 mm
10:22 PM 68.5°F20.3°C 59.5°F15.3°C 73% Calm Calm -- 29.93 in1013.5 mb 0.00 in0.0 mm 0.00 in0.0 mm 0.00 in0.0 mm
10:24 PM 68.5°F20.3°C 59.5°F15.3°C 73% Calm Calm -- 29.93 in1013.5 mb 0.00 in0.0 mm 0.00 in0.0 mm 0.00 in0.0 mm
10:26 PM 68.6°F20.3°C 59.2°F15.1°C 72% Calm Calm 1.1 mph1.8 kmh 29.93 in1013.5 mb 0.00 in0.0 mm 0.00 in0.0 mm 0.00 in0.0 mm
10:28 PM 68.7°F20.4°C 59.3°F15.2°C 72% Calm Calm -- 29.93 in1013.5 mb 0.00 in0.0 mm 0.00 in0.0 mm 0.00 in0.0 mm
10:30 PM 68.7°F20.4°C 58.9°F14.9°C 71% Calm Calm -- 29.93 in1013.5 mb 0.00 in0.0 mm 0.00 in0.0 mm 0.00 in0.0 mm
10:32 PM 68.8°F20.4°C 59.0°F15.0°C 71% Calm Calm -- 29.93 in1013.5 mb 0.00 in0.0 mm 0.00 in0.0 mm 0.00 in0.0 mm
10:34 PM 68.9°F20.5°C 59.1°F15.1°C 71% Calm Calm -- 29.93 in1013.5 mb 0.00 in0.0 mm 0.00 in0.0 mm 0.00 in0.0 mm
10:36 PM 69.0°F20.6°C 59.2°F15.1°C 71% Calm Calm 1.1 mph1.8 kmh 29.93 in1013.5 mb 0.00 in0.0 mm 0.00 in0.0 mm 0.00 in0.0 mm
10:38 PM 69.1°F20.6°C 58.9°F14.9°C 70% Calm Calm 1.1 mph1.8 kmh 29.93 in1013.5 mb 0.00 in0.0 mm 0.00 in0.0 mm 0.00 in0.0 mm
10:40 PM 69.2°F20.7°C 59.0°F15.0°C 70% Calm Calm 1.1 mph1.8 kmh 29.93 in1013.5 mb 0.00 in0.0 mm 0.00 in0.0 mm 0.00 in0.0 mm
10:42 PM 69.3°F20.7°C 59.5°F15.3°C 71% Calm Calm -- 29.92 in1013.2 mb 0.00 in0.0 mm 0.00 in0.0 mm 0.00 in0.0 mm
10:44 PM 69.4°F20.8°C 59.2°F15.1°C 70% Calm Calm -- 29.92 in1013.2 mb 0.00 in0.0 mm 0.00 in0.0 mm 0.00 in0.0 mm
10:46 PM 69.5°F20.8°C 59.3°F15.2°C 70% Calm Calm -- 29.92 in1013.2 mb 0.00 in0.0 mm 0.00 in0.0 mm 0.00 in0.0 mm
10:48 PM 69.6°F20.9°C 59.8°F15.4°C 71% Calm Calm -- 29.92 in1013.2 mb 0.00 in0.0 mm 0.00 in0.0 mm 0.00 in0.0 mm
10:50 PM 69.6°F20.9°C 60.2°F15.7°C 72% Calm Calm -- 29.92 in1013.2 mb 0.00 in0.0 mm 0.00 in0.0 mm 0.00 in0.0 mm
10:52 PM 69.6°F20.9°C 59.8°F15.4°C 71% Calm Calm -- 29.92 in1013.2 mb 0.00 in0.0 mm 0.00 in0.0 mm 0.00 in0.0 mm
10:54 PM 69.5°F20.8°C 59.7°F15.4°C 71% Calm Calm 1.1 mph1.8 kmh 29.92 in1013.2 mb 0.00 in0.0 mm 0.00 in0.0 mm 0.00 in0.0 mm
10:56 PM 69.4°F20.8°C 59.6°F15.3°C 71% Calm Calm -- 29.92 in1013.2 mb 0.00 in0.0 mm 0.00 in0.0 mm 0.00 in0.0 mm
10:58 PM 69.3°F20.7°C 59.9°F15.5°C 72% Calm Calm -- 29.92 in1013.2 mb 0.00 in0.0 mm 0.00 in0.0 mm 0.00 in0.0 mm
11:00 PM 69.2°F20.7°C 59.8°F15.4°C 72% Calm Calm 1.1 mph1.8 kmh 29.92 in1013.2 mb 0.00 in0.0 mm 0.00 in0.0 mm 0.00 in0.0 mm
11:02 PM 69.1°F20.6°C 60.5°F15.8°C 74% Calm Calm 1.1 mph1.8 kmh 29.92 in1013.2 mb 0.00 in0.0 mm 0.00 in0.0 mm 0.00 in0.0 mm
11:04 PM 69.0°F20.6°C 60.0°F15.6°C 73% Calm Calm 1.1 mph1.8 kmh 29.92 in1013.2 mb 0.00 in0.0 mm 0.00 in0.0 mm 0.00 in0.0 mm
11:06 PM 68.8°F20.4°C 59.8°F15.4°C 73% Calm Calm -- 29.91 in1012.9 mb 0.00 in0.0 mm 0.00 in0.0 mm 0.00 in0.0 mm
11:08 PM 68.6°F20.3°C 60.3°F15.7°C 75% Calm Calm 1.1 mph1.8 kmh 29.91 in1012.9 mb 0.00 in0.0 mm 0.00 in0.0 mm 0.00 in0.0 mm
11:10 PM 68.5°F20.3°C 61.0°F16.1°C 77% Calm Calm 1.1 mph1.8 kmh 29.91 in1012.9 mb 0.00 in0.0 mm 0.00 in0.0 mm 0.00 in0.0 mm
11:12 PM 68.4°F20.2°C 61.3°F16.3°C 78% Calm Calm -- 29.91 in1012.9 mb 0.00 in0.0 mm 0.00 in0.0 mm 0.00 in0.0 mm
11:14 PM 68.3°F20.2°C 61.2°F16.2°C 78% 1.0 mph S1.6 kmh S 1.1 mph1.8 kmh 29.91 in1012.9 mb 0.00 in0.0 mm 0.00 in0.0 mm 0.00 in0.0 mm
11:16 PM 68.1°F20.1°C 60.2°F15.7°C 76% 3.0 mph SE4.8 kmh SE 4.6 mph7.4 kmh 29.91 in1012.9 mb 0.00 in0.0 mm 0.00 in0.0 mm 0.00 in0.0 mm
11:18 PM 67.9°F19.9°C 60.4°F15.8°C 77% Calm Calm -- 29.91 in1012.9 mb 0.00 in0.0 mm 0.00 in0.0 mm 0.00 in0.0 mm
11:20 PM 67.7°F19.8°C 60.2°F15.7°C 77% Calm Calm 1.1 mph1.8 kmh 29.90 in1012.5 mb 0.00 in0.0 mm 0.00 in0.0 mm 0.00 in0.0 mm
11:22 PM 67.6°F19.8°C 60.5°F15.8°C 78% Calm Calm -- 29.91 in1012.9 mb 0.00 in0.0 mm 0.00 in0.0 mm 0.00 in0.0 mm
11:24 PM 67.4°F19.7°C 59.9°F15.5°C 77% Calm Calm 1.1 mph1.8 kmh 29.91 in1012.9 mb 0.00 in0.0 mm 0.00 in0.0 mm 0.00 in0.0 mm
11:26 PM 67.3°F19.6°C 59.8°F15.4°C 77% Calm Calm -- 29.91 in1012.9 mb 0.00 in0.0 mm 0.00 in0.0 mm 0.00 in0.0 mm
11:28 PM 67.1°F19.5°C 59.6°F15.3°C 77% Calm Calm 1.1 mph1.8 kmh 29.91 in1012.9 mb 0.00 in0.0 mm 0.00 in0.0 mm 0.00 in0.0 mm
11:30 PM 67.0°F19.4°C 59.5°F15.3°C 77% Calm Calm 1.1 mph1.8 kmh 29.91 in1012.9 mb 0.00 in0.0 mm 0.00 in0.0 mm 0.00 in0.0 mm
11:32 PM 66.8°F19.3°C 59.7°F15.4°C 78% 1.0 mph E1.6 kmh E 1.1 mph1.8 kmh 29.90 in1012.5 mb 0.00 in0.0 mm 0.00 in0.0 mm 0.00 in0.0 mm
11:34 PM 66.7°F19.3°C 59.3°F15.2°C 77% Calm Calm 2.3 mph3.7 kmh 29.91 in1012.9 mb 0.00 in0.0 mm 0.00 in0.0 mm 0.00 in0.0 mm
11:36 PM 66.6°F19.2°C 59.5°F15.3°C 78% Calm Calm 1.1 mph1.8 kmh 29.91 in1012.9 mb 0.00 in0.0 mm 0.00 in0.0 mm 0.00 in0.0 mm
11:38 PM 66.6°F19.2°C 59.5°F15.3°C 78% Calm Calm -- 29.91 in1012.9 mb 0.00 in0.0 mm 0.00 in0.0 mm 0.00 in0.0 mm
11:40 PM 66.5°F19.2°C 59.4°F15.2°C 78% Calm Calm -- 29.91 in1012.9 mb 0.00 in0.0 mm 0.00 in0.0 mm 0.00 in0.0 mm
11:42 PM 66.5°F19.2°C 59.4°F15.2°C 78% Calm Calm -- 29.91 in1012.9 mb 0.00 in0.0 mm 0.00 in0.0 mm 0.00 in0.0 mm
11:44 PM 66.4°F19.1°C 59.3°F15.2°C 78% Calm Calm -- 29.91 in1012.9 mb 0.00 in0.0 mm 0.00 in0.0 mm 0.00 in0.0 mm
11:46 PM 66.4°F19.1°C 59.7°F15.4°C 79% Calm Calm -- 29.91 in1012.9 mb 0.00 in0.0 mm 0.00 in0.0 mm 0.00 in0.0 mm
11:48 PM 66.3°F19.1°C 59.6°F15.3°C 79% Calm Calm -- 29.91 in1012.9 mb 0.00 in0.0 mm 0.00 in0.0 mm 0.00 in0.0 mm
11:50 PM 66.2°F19.0°C 59.1°F15.1°C 78% Calm Calm -- 29.91 in1012.9 mb 0.00 in0.0 mm 0.00 in0.0 mm 0.00 in0.0 mm
11:52 PM 66.1°F18.9°C 59.0°F15.0°C 78% Calm Calm -- 29.91 in1012.9 mb 0.00 in0.0 mm 0.00 in0.0 mm 0.00 in0.0 mm
11:54 PM 66.1°F18.9°C 59.4°F15.2°C 79% Calm Calm -- 29.91 in1012.9 mb 0.00 in0.0 mm 0.00 in0.0 mm 0.00 in0.0 mm
11:56 PM 66.0°F18.9°C 59.3°F15.2°C 79% Calm Calm -- 29.91 in1012.9 mb 0.00 in0.0 mm 0.00 in0.0 mm 0.00 in0.0 mm
11:58 PM 66.0°F18.9°C 59.6°F15.3°C 80% Calm Calm -- 29.91 in1012.9 mb 0.00 in0.0 mm 0.00 in0.0 mm 0.00 in0.0 mm